<?xml version="1.0" encoding="UTF-8" standalone="no" ?>
<gpx xmlns="http://www.topografix.com/GPX/1/1" xmlns:xsi="http://www.w3.org/2001/XMLSchema-instance" xsi:schemaLocation="http://www.topografix.com/GPX/1/1 http://www.topografix.com/GPX/1/1/gpx.xsd" version="1.1" creator="VisuGPX - https://www.visugpx.com">
  <metadata>
    <name>Mahalon, balade de l'étang</name>
    <desc><![CDATA[[b]Départ et arrivée[/b] : place de l’église à Mahalon (Finistère)
[b]Pour en savoir et voir plus[/b] :
[url]https://portail-de-randos.fr/Finistere/br_sentiers/Mahalon_etang.htm[/url]

Cap Sizun pointe du raz nous offre un plan, une trace GPS et une courte présentation.

On apprécie la diversité du parcours avec ses chemins creux, ses chapelles et lavoirs, son étang et les points de vue.

Bonne randonnée

Jean LM
]]></desc>
  </metadata>
  <trk>
    <name><![CDATA[2025-01-28-03]]></name>
    <trkseg>
      <trkpt lat="48.03488" lon="-4.43583">
        <ele>47.5</ele>
        <time>2025-01-28T08:26:01Z</time>
      </trkpt>
      <trkpt lat="48.03489" lon="-4.43582">
        <ele>47.5</ele>
        <time>2025-01-28T08:26:02Z</time>
      </trkpt>
      <trkpt lat="48.03494" lon="-4.4357">
        <ele>46.8</ele>
        <time>2025-01-28T08:26:11Z</time>
      </trkpt>
      <trkpt lat="48.03499" lon="-4.43559">
        <ele>47.6</ele>
        <time>2025-01-28T08:26:18Z</time>
      </trkpt>
      <trkpt lat="48.03503" lon="-4.43546">
        <ele>47.1</ele>
        <time>2025-01-28T08:26:25Z</time>
      </trkpt>
      <trkpt lat="48.03507" lon="-4.43532">
        <ele>46.3</ele>
        <time>2025-01-28T08:26:33Z</time>
      </trkpt>
      <trkpt lat="48.03511" lon="-4.43519">
        <ele>45.3</ele>
        <time>2025-01-28T08:26:42Z</time>
      </trkpt>
      <trkpt lat="48.03515" lon="-4.43507">
        <ele>44.8</ele>
        <time>2025-01-28T08:26:51Z</time>
      </trkpt>
      <trkpt lat="48.03517" lon="-4.43494">
        <ele>44.1</ele>
        <time>2025-01-28T08:26:59Z</time>
      </trkpt>
      <trkpt lat="48.03519" lon="-4.43479">
        <ele>44.1</ele>
        <time>2025-01-28T08:27:07Z</time>
      </trkpt>
      <trkpt lat="48.03519" lon="-4.43464">
        <ele>43.4</ele>
        <time>2025-01-28T08:27:14Z</time>
      </trkpt>
      <trkpt lat="48.03519" lon="-4.43449">
        <ele>42.9</ele>
        <time>2025-01-28T08:27:21Z</time>
      </trkpt>
      <trkpt lat="48.0352" lon="-4.43435">
        <ele>42.2</ele>
        <time>2025-01-28T08:27:27Z</time>
      </trkpt>
      <trkpt lat="48.0352" lon="-4.4342">
        <ele>42.1</ele>
        <time>2025-01-28T08:27:33Z</time>
      </trkpt>
      <trkpt lat="48.03521" lon="-4.43405">
        <ele>41.3</ele>
        <time>2025-01-28T08:27:40Z</time>
      </trkpt>
      <trkpt lat="48.0352" lon="-4.43389">
        <ele>40.4</ele>
        <time>2025-01-28T08:27:47Z</time>
      </trkpt>
      <trkpt lat="48.03519" lon="-4.43375">
        <ele>39.8</ele>
        <time>2025-01-28T08:27:54Z</time>
      </trkpt>
      <trkpt lat="48.03516" lon="-4.43361">
        <ele>39.1</ele>
        <time>2025-01-28T08:28:01Z</time>
      </trkpt>
      <trkpt lat="48.03515" lon="-4.43348">
        <ele>38.7</ele>
        <time>2025-01-28T08:28:12Z</time>
      </trkpt>
      <trkpt lat="48.03513" lon="-4.43333">
        <ele>38.6</ele>
        <time>2025-01-28T08:28:24Z</time>
      </trkpt>
      <trkpt lat="48.03513" lon="-4.43319">
        <ele>38.3</ele>
        <time>2025-01-28T08:28:32Z</time>
      </trkpt>
      <trkpt lat="48.03513" lon="-4.43305">
        <ele>37.5</ele>
        <time>2025-01-28T08:28:40Z</time>
      </trkpt>
      <trkpt lat="48.03514" lon="-4.43292">
        <ele>36.8</ele>
        <time>2025-01-28T08:28:48Z</time>
      </trkpt>
      <trkpt lat="48.03514" lon="-4.43277">
        <ele>36.4</ele>
        <time>2025-01-28T08:28:56Z</time>
      </trkpt>
      <trkpt lat="48.03516" lon="-4.43263">
        <ele>35.9</ele>
        <time>2025-01-28T08:29:05Z</time>
      </trkpt>
      <trkpt lat="48.03517" lon="-4.43249">
        <ele>34.7</ele>
        <time>2025-01-28T08:29:15Z</time>
      </trkpt>
      <trkpt lat="48.0352" lon="-4.43235">
        <ele>34.1</ele>
        <time>2025-01-28T08:29:28Z</time>
      </trkpt>
      <trkpt lat="48.03522" lon="-4.4322">
        <ele>33.5</ele>
        <time>2025-01-28T08:30:00Z</time>
      </trkpt>
      <trkpt lat="48.03522" lon="-4.43206">
        <ele>33</ele>
        <time>2025-01-28T08:30:09Z</time>
      </trkpt>
      <trkpt lat="48.03522" lon="-4.43192">
        <ele>31.9</ele>
        <time>2025-01-28T08:30:18Z</time>
      </trkpt>
      <trkpt lat="48.03522" lon="-4.43177">
        <ele>31</ele>
        <time>2025-01-28T08:30:28Z</time>
      </trkpt>
      <trkpt lat="48.03522" lon="-4.43163">
        <ele>30.4</ele>
        <time>2025-01-28T08:30:36Z</time>
      </trkpt>
      <trkpt lat="48.03522" lon="-4.43148">
        <ele>29.8</ele>
        <time>2025-01-28T08:30:43Z</time>
      </trkpt>
      <trkpt lat="48.03522" lon="-4.43134">
        <ele>28.8</ele>
        <time>2025-01-28T08:30:51Z</time>
      </trkpt>
      <trkpt lat="48.03524" lon="-4.43121">
        <ele>28.1</ele>
        <time>2025-01-28T08:31:00Z</time>
      </trkpt>
      <trkpt lat="48.03524" lon="-4.43107">
        <ele>27</ele>
        <time>2025-01-28T08:31:08Z</time>
      </trkpt>
      <trkpt lat="48.03525" lon="-4.43093">
        <ele>25.9</ele>
        <time>2025-01-28T08:31:16Z</time>
      </trkpt>
      <trkpt lat="48.03525" lon="-4.43078">
        <ele>24.8</ele>
        <time>2025-01-28T08:31:23Z</time>
      </trkpt>
      <trkpt lat="48.03522" lon="-4.43065">
        <ele>22.1</ele>
        <time>2025-01-28T08:32:18Z</time>
      </trkpt>
      <trkpt lat="48.03512" lon="-4.43064">
        <ele>20.3</ele>
        <time>2025-01-28T08:32:29Z</time>
      </trkpt>
      <trkpt lat="48.03503" lon="-4.43062">
        <ele>20</ele>
        <time>2025-01-28T08:32:36Z</time>
      </trkpt>
      <trkpt lat="48.03493" lon="-4.4306">
        <ele>20.4</ele>
        <time>2025-01-28T08:32:47Z</time>
      </trkpt>
      <trkpt lat="48.03484" lon="-4.43064">
        <ele>20.8</ele>
        <time>2025-01-28T08:32:59Z</time>
      </trkpt>
      <trkpt lat="48.03474" lon="-4.43066">
        <ele>21.1</ele>
        <time>2025-01-28T08:33:09Z</time>
      </trkpt>
      <trkpt lat="48.03466" lon="-4.43072">
        <ele>21.5</ele>
        <time>2025-01-28T08:33:16Z</time>
      </trkpt>
      <trkpt lat="48.03457" lon="-4.43079">
        <ele>21.8</ele>
        <time>2025-01-28T08:33:29Z</time>
      </trkpt>
      <trkpt lat="48.03449" lon="-4.43086">
        <ele>22</ele>
        <time>2025-01-28T08:33:35Z</time>
      </trkpt>
      <trkpt lat="48.03441" lon="-4.43092">
        <ele>22.1</ele>
        <time>2025-01-28T08:33:40Z</time>
      </trkpt>
      <trkpt lat="48.03432" lon="-4.43098">
        <ele>22.1</ele>
        <time>2025-01-28T08:33:46Z</time>
      </trkpt>
      <trkpt lat="48.03422" lon="-4.43105">
        <ele>22.3</ele>
        <time>2025-01-28T08:33:54Z</time>
      </trkpt>
      <trkpt lat="48.03414" lon="-4.43112">
        <ele>23</ele>
        <time>2025-01-28T08:34:03Z</time>
      </trkpt>
      <trkpt lat="48.03404" lon="-4.43118">
        <ele>24.2</ele>
        <time>2025-01-28T08:34:12Z</time>
      </trkpt>
      <trkpt lat="48.03396" lon="-4.43125">
        <ele>24</ele>
        <time>2025-01-28T08:34:20Z</time>
      </trkpt>
      <trkpt lat="48.03387" lon="-4.43132">
        <ele>23.9</ele>
        <time>2025-01-28T08:34:28Z</time>
      </trkpt>
      <trkpt lat="48.03378" lon="-4.43135">
        <ele>24</ele>
        <time>2025-01-28T08:34:35Z</time>
      </trkpt>
      <trkpt lat="48.0337" lon="-4.43139">
        <ele>24.3</ele>
        <time>2025-01-28T08:34:53Z</time>
      </trkpt>
      <trkpt lat="48.03361" lon="-4.43144">
        <ele>24.6</ele>
        <time>2025-01-28T08:35:03Z</time>
      </trkpt>
      <trkpt lat="48.03353" lon="-4.43151">
        <ele>25.4</ele>
        <time>2025-01-28T08:35:12Z</time>
      </trkpt>
      <trkpt lat="48.03344" lon="-4.43158">
        <ele>26.3</ele>
        <time>2025-01-28T08:35:20Z</time>
      </trkpt>
      <trkpt lat="48.03337" lon="-4.43165">
        <ele>26.9</ele>
        <time>2025-01-28T08:35:35Z</time>
      </trkpt>
      <trkpt lat="48.03327" lon="-4.43167">
        <ele>27.3</ele>
        <time>2025-01-28T08:35:42Z</time>
      </trkpt>
      <trkpt lat="48.03317" lon="-4.43171">
        <ele>27</ele>
        <time>2025-01-28T08:35:50Z</time>
      </trkpt>
      <trkpt lat="48.03308" lon="-4.43176">
        <ele>26.4</ele>
        <time>2025-01-28T08:35:59Z</time>
      </trkpt>
      <trkpt lat="48.03301" lon="-4.43188">
        <ele>26.2</ele>
        <time>2025-01-28T08:36:08Z</time>
      </trkpt>
      <trkpt lat="48.03296" lon="-4.432">
        <ele>26.8</ele>
        <time>2025-01-28T08:36:17Z</time>
      </trkpt>
      <trkpt lat="48.03289" lon="-4.43209">
        <ele>28</ele>
        <time>2025-01-28T08:36:27Z</time>
      </trkpt>
      <trkpt lat="48.03281" lon="-4.43219">
        <ele>28.6</ele>
        <time>2025-01-28T08:36:38Z</time>
      </trkpt>
      <trkpt lat="48.03276" lon="-4.4323">
        <ele>29.1</ele>
        <time>2025-01-28T08:36:48Z</time>
      </trkpt>
      <trkpt lat="48.03271" lon="-4.43242">
        <ele>30.2</ele>
        <time>2025-01-28T08:36:59Z</time>
      </trkpt>
      <trkpt lat="48.03262" lon="-4.43247">
        <ele>30.9</ele>
        <time>2025-01-28T08:37:07Z</time>
      </trkpt>
      <trkpt lat="48.03256" lon="-4.43258">
        <ele>31.5</ele>
        <time>2025-01-28T08:37:16Z</time>
      </trkpt>
      <trkpt lat="48.03249" lon="-4.43268">
        <ele>32.3</ele>
        <time>2025-01-28T08:37:24Z</time>
      </trkpt>
      <trkpt lat="48.03242" lon="-4.43278">
        <ele>33</ele>
        <time>2025-01-28T08:37:33Z</time>
      </trkpt>
      <trkpt lat="48.03234" lon="-4.43287">
        <ele>33.5</ele>
        <time>2025-01-28T08:37:40Z</time>
      </trkpt>
      <trkpt lat="48.03226" lon="-4.43293">
        <ele>33.9</ele>
        <time>2025-01-28T08:37:49Z</time>
      </trkpt>
      <trkpt lat="48.03218" lon="-4.433">
        <ele>34.8</ele>
        <time>2025-01-28T08:37:57Z</time>
      </trkpt>
      <trkpt lat="48.0321" lon="-4.43306">
        <ele>35.5</ele>
        <time>2025-01-28T08:38:04Z</time>
      </trkpt>
      <trkpt lat="48.03202" lon="-4.43312">
        <ele>35.6</ele>
        <time>2025-01-28T08:38:13Z</time>
      </trkpt>
      <trkpt lat="48.03193" lon="-4.43319">
        <ele>36.2</ele>
        <time>2025-01-28T08:38:23Z</time>
      </trkpt>
      <trkpt lat="48.03184" lon="-4.43323">
        <ele>36.6</ele>
        <time>2025-01-28T08:38:31Z</time>
      </trkpt>
      <trkpt lat="48.03175" lon="-4.43327">
        <ele>36.8</ele>
        <time>2025-01-28T08:38:39Z</time>
      </trkpt>
      <trkpt lat="48.03166" lon="-4.43327">
        <ele>37.2</ele>
        <time>2025-01-28T08:38:47Z</time>
      </trkpt>
      <trkpt lat="48.03156" lon="-4.43329">
        <ele>37.5</ele>
        <time>2025-01-28T08:38:55Z</time>
      </trkpt>
      <trkpt lat="48.03147" lon="-4.43332">
        <ele>37.8</ele>
        <time>2025-01-28T08:39:04Z</time>
      </trkpt>
      <trkpt lat="48.03138" lon="-4.43335">
        <ele>37.9</ele>
        <time>2025-01-28T08:39:13Z</time>
      </trkpt>
      <trkpt lat="48.03128" lon="-4.43339">
        <ele>38</ele>
        <time>2025-01-28T08:39:21Z</time>
      </trkpt>
      <trkpt lat="48.03119" lon="-4.43339">
        <ele>38</ele>
        <time>2025-01-28T08:39:28Z</time>
      </trkpt>
      <trkpt lat="48.0311" lon="-4.43342">
        <ele>38.3</ele>
        <time>2025-01-28T08:39:37Z</time>
      </trkpt>
      <trkpt lat="48.031" lon="-4.43345">
        <ele>38.5</ele>
        <time>2025-01-28T08:39:45Z</time>
      </trkpt>
      <trkpt lat="48.0309" lon="-4.4335">
        <ele>38.7</ele>
        <time>2025-01-28T08:39:52Z</time>
      </trkpt>
      <trkpt lat="48.03082" lon="-4.43358">
        <ele>39</ele>
        <time>2025-01-28T08:40:02Z</time>
      </trkpt>
      <trkpt lat="48.03073" lon="-4.43364">
        <ele>39.8</ele>
        <time>2025-01-28T08:40:10Z</time>
      </trkpt>
      <trkpt lat="48.03065" lon="-4.43373">
        <ele>40.4</ele>
        <time>2025-01-28T08:40:18Z</time>
      </trkpt>
      <trkpt lat="48.03056" lon="-4.43379">
        <ele>41.8</ele>
        <time>2025-01-28T08:40:28Z</time>
      </trkpt>
      <trkpt lat="48.0305" lon="-4.4339">
        <ele>43.8</ele>
        <time>2025-01-28T08:40:39Z</time>
      </trkpt>
      <trkpt lat="48.03042" lon="-4.43397">
        <ele>45.6</ele>
        <time>2025-01-28T08:41:33Z</time>
      </trkpt>
      <trkpt lat="48.03042" lon="-4.43397">
        <ele>45.6</ele>
        <time>2025-01-28T08:41:33Z</time>
      </trkpt>
      <trkpt lat="48.03034" lon="-4.4339">
        <ele>46</ele>
        <time>2025-01-28T08:41:58Z</time>
      </trkpt>
      <trkpt lat="48.03025" lon="-4.43386">
        <ele>46</ele>
        <time>2025-01-28T08:42:07Z</time>
      </trkpt>
      <trkpt lat="48.03017" lon="-4.4338">
        <ele>46.1</ele>
        <time>2025-01-28T08:42:16Z</time>
      </trkpt>
      <trkpt lat="48.03008" lon="-4.43374">
        <ele>45.9</ele>
        <time>2025-01-28T08:42:26Z</time>
      </trkpt>
      <trkpt lat="48.02999" lon="-4.43372">
        <ele>46.1</ele>
        <time>2025-01-28T08:42:37Z</time>
      </trkpt>
      <trkpt lat="48.0299" lon="-4.43366">
        <ele>46.3</ele>
        <time>2025-01-28T08:42:46Z</time>
      </trkpt>
      <trkpt lat="48.0298" lon="-4.43361">
        <ele>46.4</ele>
        <time>2025-01-28T08:42:57Z</time>
      </trkpt>
      <trkpt lat="48.02972" lon="-4.43357">
        <ele>47</ele>
        <time>2025-01-28T08:43:05Z</time>
      </trkpt>
      <trkpt lat="48.02962" lon="-4.43358">
        <ele>48.3</ele>
        <time>2025-01-28T08:43:24Z</time>
      </trkpt>
      <trkpt lat="48.02961" lon="-4.43344">
        <ele>47.5</ele>
        <time>2025-01-28T08:43:57Z</time>
      </trkpt>
      <trkpt lat="48.02952" lon="-4.43341">
        <ele>47.7</ele>
        <time>2025-01-28T08:44:09Z</time>
      </trkpt>
      <trkpt lat="48.02947" lon="-4.43353">
        <ele>48</ele>
        <time>2025-01-28T08:44:42Z</time>
      </trkpt>
      <trkpt lat="48.02938" lon="-4.43353">
        <ele>48.8</ele>
        <time>2025-01-28T08:45:32Z</time>
      </trkpt>
      <trkpt lat="48.02929" lon="-4.43357">
        <ele>50.7</ele>
        <time>2025-01-28T08:45:45Z</time>
      </trkpt>
      <trkpt lat="48.0292" lon="-4.43354">
        <ele>51.3</ele>
        <time>2025-01-28T08:45:55Z</time>
      </trkpt>
      <trkpt lat="48.0291" lon="-4.43348">
        <ele>51.6</ele>
        <time>2025-01-28T08:46:05Z</time>
      </trkpt>
      <trkpt lat="48.02902" lon="-4.43344">
        <ele>51.9</ele>
        <time>2025-01-28T08:46:12Z</time>
      </trkpt>
      <trkpt lat="48.02892" lon="-4.43342">
        <ele>52.4</ele>
        <time>2025-01-28T08:46:19Z</time>
      </trkpt>
      <trkpt lat="48.02883" lon="-4.43341">
        <ele>53.2</ele>
        <time>2025-01-28T08:46:26Z</time>
      </trkpt>
      <trkpt lat="48.02874" lon="-4.43344">
        <ele>54.7</ele>
        <time>2025-01-28T08:46:34Z</time>
      </trkpt>
      <trkpt lat="48.02867" lon="-4.43354">
        <ele>56.4</ele>
        <time>2025-01-28T08:46:48Z</time>
      </trkpt>
      <trkpt lat="48.02869" lon="-4.43368">
        <ele>57.5</ele>
        <time>2025-01-28T08:46:58Z</time>
      </trkpt>
      <trkpt lat="48.02872" lon="-4.43381">
        <ele>58.2</ele>
        <time>2025-01-28T08:47:08Z</time>
      </trkpt>
      <trkpt lat="48.02875" lon="-4.43394">
        <ele>58.7</ele>
        <time>2025-01-28T08:47:18Z</time>
      </trkpt>
      <trkpt lat="48.02878" lon="-4.43407">
        <ele>59.3</ele>
        <time>2025-01-28T08:47:27Z</time>
      </trkpt>
      <trkpt lat="48.0288" lon="-4.43422">
        <ele>59.6</ele>
        <time>2025-01-28T08:47:40Z</time>
      </trkpt>
      <trkpt lat="48.02883" lon="-4.43436">
        <ele>60.4</ele>
        <time>2025-01-28T08:47:49Z</time>
      </trkpt>
      <trkpt lat="48.02886" lon="-4.43449">
        <ele>61</ele>
        <time>2025-01-28T08:47:57Z</time>
      </trkpt>
      <trkpt lat="48.02891" lon="-4.43462">
        <ele>61.8</ele>
        <time>2025-01-28T08:48:07Z</time>
      </trkpt>
      <trkpt lat="48.02894" lon="-4.43475">
        <ele>62.5</ele>
        <time>2025-01-28T08:48:15Z</time>
      </trkpt>
      <trkpt lat="48.02897" lon="-4.43488">
        <ele>63.2</ele>
        <time>2025-01-28T08:48:23Z</time>
      </trkpt>
      <trkpt lat="48.029" lon="-4.43501">
        <ele>63.6</ele>
        <time>2025-01-28T08:48:32Z</time>
      </trkpt>
      <trkpt lat="48.02904" lon="-4.43516">
        <ele>64.5</ele>
        <time>2025-01-28T08:48:41Z</time>
      </trkpt>
      <trkpt lat="48.02907" lon="-4.43529">
        <ele>65</ele>
        <time>2025-01-28T08:48:49Z</time>
      </trkpt>
      <trkpt lat="48.0291" lon="-4.43543">
        <ele>65.3</ele>
        <time>2025-01-28T08:48:57Z</time>
      </trkpt>
      <trkpt lat="48.02915" lon="-4.43555">
        <ele>65.6</ele>
        <time>2025-01-28T08:49:05Z</time>
      </trkpt>
      <trkpt lat="48.02922" lon="-4.43565">
        <ele>65.3</ele>
        <time>2025-01-28T08:49:58Z</time>
      </trkpt>
      <trkpt lat="48.02929" lon="-4.43572">
        <ele>65.3</ele>
        <time>2025-01-28T08:50:09Z</time>
      </trkpt>
      <trkpt lat="48.02929" lon="-4.43586">
        <ele>65.5</ele>
        <time>2025-01-28T08:50:20Z</time>
      </trkpt>
      <trkpt lat="48.02926" lon="-4.43601">
        <ele>65.6</ele>
        <time>2025-01-28T08:50:31Z</time>
      </trkpt>
      <trkpt lat="48.02929" lon="-4.43614">
        <ele>66.1</ele>
        <time>2025-01-28T08:50:39Z</time>
      </trkpt>
      <trkpt lat="48.02933" lon="-4.43627">
        <ele>66.4</ele>
        <time>2025-01-28T08:50:46Z</time>
      </trkpt>
      <trkpt lat="48.02935" lon="-4.4364">
        <ele>66.1</ele>
        <time>2025-01-28T08:50:54Z</time>
      </trkpt>
      <trkpt lat="48.02939" lon="-4.43654">
        <ele>66.2</ele>
        <time>2025-01-28T08:51:07Z</time>
      </trkpt>
      <trkpt lat="48.02943" lon="-4.43667">
        <ele>66</ele>
        <time>2025-01-28T08:51:16Z</time>
      </trkpt>
      <trkpt lat="48.02946" lon="-4.4368">
        <ele>66.3</ele>
        <time>2025-01-28T08:51:23Z</time>
      </trkpt>
      <trkpt lat="48.02949" lon="-4.43694">
        <ele>66.3</ele>
        <time>2025-01-28T08:51:40Z</time>
      </trkpt>
      <trkpt lat="48.02952" lon="-4.43706">
        <ele>66</ele>
        <time>2025-01-28T08:51:47Z</time>
      </trkpt>
      <trkpt lat="48.02955" lon="-4.43719">
        <ele>65.9</ele>
        <time>2025-01-28T08:51:54Z</time>
      </trkpt>
      <trkpt lat="48.02958" lon="-4.43733">
        <ele>66.3</ele>
        <time>2025-01-28T08:52:03Z</time>
      </trkpt>
      <trkpt lat="48.02962" lon="-4.43747">
        <ele>66</ele>
        <time>2025-01-28T08:52:12Z</time>
      </trkpt>
      <trkpt lat="48.02966" lon="-4.43761">
        <ele>66</ele>
        <time>2025-01-28T08:52:19Z</time>
      </trkpt>
      <trkpt lat="48.0297" lon="-4.43775">
        <ele>66</ele>
        <time>2025-01-28T08:52:27Z</time>
      </trkpt>
      <trkpt lat="48.02974" lon="-4.43788">
        <ele>65.9</ele>
        <time>2025-01-28T08:52:35Z</time>
      </trkpt>
      <trkpt lat="48.02976" lon="-4.43801">
        <ele>66.1</ele>
        <time>2025-01-28T08:52:42Z</time>
      </trkpt>
      <trkpt lat="48.02979" lon="-4.43815">
        <ele>66.1</ele>
        <time>2025-01-28T08:52:49Z</time>
      </trkpt>
      <trkpt lat="48.02982" lon="-4.43828">
        <ele>66.1</ele>
        <time>2025-01-28T08:52:55Z</time>
      </trkpt>
      <trkpt lat="48.02985" lon="-4.43841">
        <ele>66.1</ele>
        <time>2025-01-28T08:53:01Z</time>
      </trkpt>
      <trkpt lat="48.02987" lon="-4.43855">
        <ele>65.9</ele>
        <time>2025-01-28T08:53:08Z</time>
      </trkpt>
      <trkpt lat="48.02989" lon="-4.43869">
        <ele>65.7</ele>
        <time>2025-01-28T08:53:15Z</time>
      </trkpt>
      <trkpt lat="48.02993" lon="-4.43882">
        <ele>65.6</ele>
        <time>2025-01-28T08:53:22Z</time>
      </trkpt>
      <trkpt lat="48.02997" lon="-4.43896">
        <ele>65.3</ele>
        <time>2025-01-28T08:53:51Z</time>
      </trkpt>
      <trkpt lat="48.03001" lon="-4.43909">
        <ele>64.6</ele>
        <time>2025-01-28T08:54:02Z</time>
      </trkpt>
      <trkpt lat="48.03004" lon="-4.43923">
        <ele>63.6</ele>
        <time>2025-01-28T08:54:12Z</time>
      </trkpt>
      <trkpt lat="48.03007" lon="-4.43937">
        <ele>62.9</ele>
        <time>2025-01-28T08:54:20Z</time>
      </trkpt>
      <trkpt lat="48.0301" lon="-4.43951">
        <ele>62</ele>
        <time>2025-01-28T08:54:28Z</time>
      </trkpt>
      <trkpt lat="48.03013" lon="-4.43963">
        <ele>61.1</ele>
        <time>2025-01-28T08:54:46Z</time>
      </trkpt>
      <trkpt lat="48.03018" lon="-4.43976">
        <ele>60.4</ele>
        <time>2025-01-28T08:55:13Z</time>
      </trkpt>
      <trkpt lat="48.03023" lon="-4.43988">
        <ele>59.9</ele>
        <time>2025-01-28T08:55:22Z</time>
      </trkpt>
      <trkpt lat="48.0303" lon="-4.43999">
        <ele>59.1</ele>
        <time>2025-01-28T08:55:31Z</time>
      </trkpt>
      <trkpt lat="48.03036" lon="-4.4401">
        <ele>58.3</ele>
        <time>2025-01-28T08:55:38Z</time>
      </trkpt>
      <trkpt lat="48.03043" lon="-4.4402">
        <ele>57.7</ele>
        <time>2025-01-28T08:55:46Z</time>
      </trkpt>
      <trkpt lat="48.0305" lon="-4.44032">
        <ele>57.2</ele>
        <time>2025-01-28T08:55:54Z</time>
      </trkpt>
      <trkpt lat="48.03056" lon="-4.44044">
        <ele>56.4</ele>
        <time>2025-01-28T08:56:02Z</time>
      </trkpt>
      <trkpt lat="48.03061" lon="-4.44054">
        <ele>56</ele>
        <time>2025-01-28T08:56:09Z</time>
      </trkpt>
      <trkpt lat="48.03067" lon="-4.44067">
        <ele>55.2</ele>
        <time>2025-01-28T08:56:17Z</time>
      </trkpt>
      <trkpt lat="48.03073" lon="-4.44078">
        <ele>54.6</ele>
        <time>2025-01-28T08:56:25Z</time>
      </trkpt>
      <trkpt lat="48.03078" lon="-4.4409">
        <ele>54.1</ele>
        <time>2025-01-28T08:56:33Z</time>
      </trkpt>
      <trkpt lat="48.03087" lon="-4.44099">
        <ele>53.4</ele>
        <time>2025-01-28T08:56:41Z</time>
      </trkpt>
      <trkpt lat="48.03095" lon="-4.44104">
        <ele>52.6</ele>
        <time>2025-01-28T08:56:48Z</time>
      </trkpt>
      <trkpt lat="48.03104" lon="-4.44108">
        <ele>51.9</ele>
        <time>2025-01-28T08:56:55Z</time>
      </trkpt>
      <trkpt lat="48.03114" lon="-4.44112">
        <ele>51.7</ele>
        <time>2025-01-28T08:57:02Z</time>
      </trkpt>
      <trkpt lat="48.03124" lon="-4.44114">
        <ele>51.5</ele>
        <time>2025-01-28T08:57:09Z</time>
      </trkpt>
      <trkpt lat="48.03133" lon="-4.44116">
        <ele>51.1</ele>
        <time>2025-01-28T08:57:16Z</time>
      </trkpt>
      <trkpt lat="48.03143" lon="-4.44119">
        <ele>51.3</ele>
        <time>2025-01-28T08:57:24Z</time>
      </trkpt>
      <trkpt lat="48.03153" lon="-4.44122">
        <ele>50.7</ele>
        <time>2025-01-28T08:57:34Z</time>
      </trkpt>
      <trkpt lat="48.03163" lon="-4.44124">
        <ele>50.9</ele>
        <time>2025-01-28T08:57:41Z</time>
      </trkpt>
      <trkpt lat="48.03172" lon="-4.44131">
        <ele>50.9</ele>
        <time>2025-01-28T08:57:49Z</time>
      </trkpt>
      <trkpt lat="48.03181" lon="-4.44135">
        <ele>50.7</ele>
        <time>2025-01-28T08:57:57Z</time>
      </trkpt>
      <trkpt lat="48.0319" lon="-4.4414">
        <ele>50.6</ele>
        <time>2025-01-28T08:58:04Z</time>
      </trkpt>
      <trkpt lat="48.03199" lon="-4.44145">
        <ele>50.3</ele>
        <time>2025-01-28T08:58:11Z</time>
      </trkpt>
      <trkpt lat="48.03207" lon="-4.44152">
        <ele>49.8</ele>
        <time>2025-01-28T08:58:18Z</time>
      </trkpt>
      <trkpt lat="48.03216" lon="-4.44159">
        <ele>49.4</ele>
        <time>2025-01-28T08:58:26Z</time>
      </trkpt>
      <trkpt lat="48.03225" lon="-4.44165">
        <ele>49.5</ele>
        <time>2025-01-28T08:58:33Z</time>
      </trkpt>
      <trkpt lat="48.03225" lon="-4.44165">
        <ele>49.5</ele>
        <time>2025-01-28T08:58:33Z</time>
      </trkpt>
      <trkpt lat="48.03233" lon="-4.4417">
        <ele>48.8</ele>
        <time>2025-01-28T08:58:40Z</time>
      </trkpt>
      <trkpt lat="48.03242" lon="-4.44177">
        <ele>49.8</ele>
        <time>2025-01-28T08:59:04Z</time>
      </trkpt>
      <trkpt lat="48.03251" lon="-4.44184">
        <ele>49.9</ele>
        <time>2025-01-28T08:59:11Z</time>
      </trkpt>
      <trkpt lat="48.03259" lon="-4.44192">
        <ele>50.5</ele>
        <time>2025-01-28T08:59:19Z</time>
      </trkpt>
      <trkpt lat="48.03268" lon="-4.44199">
        <ele>49.9</ele>
        <time>2025-01-28T08:59:27Z</time>
      </trkpt>
      <trkpt lat="48.03277" lon="-4.44205">
        <ele>49.4</ele>
        <time>2025-01-28T08:59:34Z</time>
      </trkpt>
      <trkpt lat="48.03285" lon="-4.44212">
        <ele>49.3</ele>
        <time>2025-01-28T08:59:41Z</time>
      </trkpt>
      <trkpt lat="48.03293" lon="-4.44219">
        <ele>49.5</ele>
        <time>2025-01-28T08:59:48Z</time>
      </trkpt>
      <trkpt lat="48.03301" lon="-4.44226">
        <ele>49.7</ele>
        <time>2025-01-28T08:59:55Z</time>
      </trkpt>
      <trkpt lat="48.03309" lon="-4.44233">
        <ele>49.8</ele>
        <time>2025-01-28T09:00:02Z</time>
      </trkpt>
      <trkpt lat="48.03317" lon="-4.44242">
        <ele>49.8</ele>
        <time>2025-01-28T09:00:10Z</time>
      </trkpt>
      <trkpt lat="48.03324" lon="-4.4425">
        <ele>50</ele>
        <time>2025-01-28T09:00:19Z</time>
      </trkpt>
      <trkpt lat="48.03331" lon="-4.44259">
        <ele>50</ele>
        <time>2025-01-28T09:00:27Z</time>
      </trkpt>
      <trkpt lat="48.03338" lon="-4.4427">
        <ele>50.2</ele>
        <time>2025-01-28T09:00:35Z</time>
      </trkpt>
      <trkpt lat="48.03345" lon="-4.4428">
        <ele>50.1</ele>
        <time>2025-01-28T09:00:42Z</time>
      </trkpt>
      <trkpt lat="48.03353" lon="-4.44288">
        <ele>49.8</ele>
        <time>2025-01-28T09:00:48Z</time>
      </trkpt>
      <trkpt lat="48.03361" lon="-4.44297">
        <ele>49.4</ele>
        <time>2025-01-28T09:00:55Z</time>
      </trkpt>
      <trkpt lat="48.03353" lon="-4.4429">
        <ele>49.4</ele>
        <time>2025-01-28T09:01:33Z</time>
      </trkpt>
      <trkpt lat="48.03346" lon="-4.4428">
        <ele>49.5</ele>
        <time>2025-01-28T09:01:42Z</time>
      </trkpt>
      <trkpt lat="48.03338" lon="-4.44273">
        <ele>50</ele>
        <time>2025-01-28T09:02:05Z</time>
      </trkpt>
      <trkpt lat="48.03331" lon="-4.44265">
        <ele>49.5</ele>
        <time>2025-01-28T09:02:25Z</time>
      </trkpt>
      <trkpt lat="48.03327" lon="-4.44278">
        <ele>49.6</ele>
        <time>2025-01-28T09:03:24Z</time>
      </trkpt>
      <trkpt lat="48.0332" lon="-4.44288">
        <ele>49.6</ele>
        <time>2025-01-28T09:03:36Z</time>
      </trkpt>
      <trkpt lat="48.03316" lon="-4.443">
        <ele>50</ele>
        <time>2025-01-28T09:03:48Z</time>
      </trkpt>
      <trkpt lat="48.03311" lon="-4.44311">
        <ele>49.2</ele>
        <time>2025-01-28T09:03:57Z</time>
      </trkpt>
      <trkpt lat="48.03307" lon="-4.44323">
        <ele>49</ele>
        <time>2025-01-28T09:04:03Z</time>
      </trkpt>
      <trkpt lat="48.03303" lon="-4.44336">
        <ele>48.7</ele>
        <time>2025-01-28T09:04:12Z</time>
      </trkpt>
      <trkpt lat="48.03302" lon="-4.44352">
        <ele>48</ele>
        <time>2025-01-28T09:04:19Z</time>
      </trkpt>
      <trkpt lat="48.03305" lon="-4.44366">
        <ele>47.1</ele>
        <time>2025-01-28T09:04:28Z</time>
      </trkpt>
      <trkpt lat="48.03307" lon="-4.44379">
        <ele>46.5</ele>
        <time>2025-01-28T09:04:38Z</time>
      </trkpt>
      <trkpt lat="48.03308" lon="-4.44394">
        <ele>45.8</ele>
        <time>2025-01-28T09:04:46Z</time>
      </trkpt>
      <trkpt lat="48.0331" lon="-4.44408">
        <ele>45.4</ele>
        <time>2025-01-28T09:04:57Z</time>
      </trkpt>
      <trkpt lat="48.03311" lon="-4.44423">
        <ele>45.1</ele>
        <time>2025-01-28T09:05:05Z</time>
      </trkpt>
      <trkpt lat="48.03313" lon="-4.44437">
        <ele>44.4</ele>
        <time>2025-01-28T09:05:15Z</time>
      </trkpt>
      <trkpt lat="48.03316" lon="-4.4445">
        <ele>43.6</ele>
        <time>2025-01-28T09:05:25Z</time>
      </trkpt>
      <trkpt lat="48.03311" lon="-4.44462">
        <ele>43</ele>
        <time>2025-01-28T09:05:40Z</time>
      </trkpt>
      <trkpt lat="48.03312" lon="-4.44476">
        <ele>41</ele>
        <time>2025-01-28T09:05:55Z</time>
      </trkpt>
      <trkpt lat="48.03308" lon="-4.44489">
        <ele>38.3</ele>
        <time>2025-01-28T09:06:14Z</time>
      </trkpt>
      <trkpt lat="48.03303" lon="-4.44501">
        <ele>35.4</ele>
        <time>2025-01-28T09:06:37Z</time>
      </trkpt>
      <trkpt lat="48.03301" lon="-4.44514">
        <ele>33.2</ele>
        <time>2025-01-28T09:06:57Z</time>
      </trkpt>
      <trkpt lat="48.03305" lon="-4.44526">
        <ele>31.4</ele>
        <time>2025-01-28T09:07:13Z</time>
      </trkpt>
      <trkpt lat="48.0331" lon="-4.44538">
        <ele>30.7</ele>
        <time>2025-01-28T09:07:26Z</time>
      </trkpt>
      <trkpt lat="48.03316" lon="-4.44548">
        <ele>29.5</ele>
        <time>2025-01-28T09:07:38Z</time>
      </trkpt>
      <trkpt lat="48.03318" lon="-4.44562">
        <ele>26.6</ele>
        <time>2025-01-28T09:07:53Z</time>
      </trkpt>
      <trkpt lat="48.03318" lon="-4.44575">
        <ele>25.3</ele>
        <time>2025-01-28T09:08:20Z</time>
      </trkpt>
      <trkpt lat="48.03316" lon="-4.44588">
        <ele>25.6</ele>
        <time>2025-01-28T09:08:50Z</time>
      </trkpt>
      <trkpt lat="48.03307" lon="-4.44593">
        <ele>28.8</ele>
        <time>2025-01-28T09:09:29Z</time>
      </trkpt>
      <trkpt lat="48.03297" lon="-4.4459">
        <ele>30.1</ele>
        <time>2025-01-28T09:09:45Z</time>
      </trkpt>
      <trkpt lat="48.0329" lon="-4.4458">
        <ele>30.1</ele>
        <time>2025-01-28T09:09:57Z</time>
      </trkpt>
      <trkpt lat="48.03282" lon="-4.44573">
        <ele>29.9</ele>
        <time>2025-01-28T09:10:09Z</time>
      </trkpt>
      <trkpt lat="48.03273" lon="-4.44576">
        <ele>31.6</ele>
        <time>2025-01-28T09:10:23Z</time>
      </trkpt>
      <trkpt lat="48.03266" lon="-4.44584">
        <ele>34.6</ele>
        <time>2025-01-28T09:10:37Z</time>
      </trkpt>
      <trkpt lat="48.03257" lon="-4.44587">
        <ele>35.3</ele>
        <time>2025-01-28T09:10:57Z</time>
      </trkpt>
      <trkpt lat="48.03248" lon="-4.44588">
        <ele>34.7</ele>
        <time>2025-01-28T09:11:06Z</time>
      </trkpt>
      <trkpt lat="48.03239" lon="-4.44593">
        <ele>34</ele>
        <time>2025-01-28T09:12:25Z</time>
      </trkpt>
      <trkpt lat="48.0323" lon="-4.44594">
        <ele>33.6</ele>
        <time>2025-01-28T09:12:32Z</time>
      </trkpt>
      <trkpt lat="48.03221" lon="-4.44597">
        <ele>33.3</ele>
        <time>2025-01-28T09:12:39Z</time>
      </trkpt>
      <trkpt lat="48.0321" lon="-4.44597">
        <ele>33.1</ele>
        <time>2025-01-28T09:12:50Z</time>
      </trkpt>
      <trkpt lat="48.032" lon="-4.44599">
        <ele>33.3</ele>
        <time>2025-01-28T09:12:56Z</time>
      </trkpt>
      <trkpt lat="48.0319" lon="-4.446">
        <ele>33.9</ele>
        <time>2025-01-28T09:13:04Z</time>
      </trkpt>
      <trkpt lat="48.03181" lon="-4.44604">
        <ele>34.5</ele>
        <time>2025-01-28T09:13:13Z</time>
      </trkpt>
      <trkpt lat="48.03173" lon="-4.44613">
        <ele>35.9</ele>
        <time>2025-01-28T09:13:23Z</time>
      </trkpt>
      <trkpt lat="48.03169" lon="-4.44625">
        <ele>36.9</ele>
        <time>2025-01-28T09:13:33Z</time>
      </trkpt>
      <trkpt lat="48.03166" lon="-4.44638">
        <ele>38.1</ele>
        <time>2025-01-28T09:13:43Z</time>
      </trkpt>
      <trkpt lat="48.03165" lon="-4.44652">
        <ele>39.2</ele>
        <time>2025-01-28T09:13:53Z</time>
      </trkpt>
      <trkpt lat="48.03165" lon="-4.44665">
        <ele>40.1</ele>
        <time>2025-01-28T09:14:03Z</time>
      </trkpt>
      <trkpt lat="48.03168" lon="-4.44679">
        <ele>40.2</ele>
        <time>2025-01-28T09:14:12Z</time>
      </trkpt>
      <trkpt lat="48.03168" lon="-4.44693">
        <ele>41.2</ele>
        <time>2025-01-28T09:14:21Z</time>
      </trkpt>
      <trkpt lat="48.03167" lon="-4.44707">
        <ele>41.7</ele>
        <time>2025-01-28T09:14:32Z</time>
      </trkpt>
      <trkpt lat="48.03166" lon="-4.44722">
        <ele>42</ele>
        <time>2025-01-28T09:14:41Z</time>
      </trkpt>
      <trkpt lat="48.03167" lon="-4.44736">
        <ele>41.7</ele>
        <time>2025-01-28T09:14:51Z</time>
      </trkpt>
      <trkpt lat="48.03167" lon="-4.44751">
        <ele>41.7</ele>
        <time>2025-01-28T09:15:00Z</time>
      </trkpt>
      <trkpt lat="48.03167" lon="-4.44765">
        <ele>41.6</ele>
        <time>2025-01-28T09:15:08Z</time>
      </trkpt>
      <trkpt lat="48.03168" lon="-4.44779">
        <ele>40.9</ele>
        <time>2025-01-28T09:15:16Z</time>
      </trkpt>
      <trkpt lat="48.03168" lon="-4.44793">
        <ele>40.5</ele>
        <time>2025-01-28T09:15:24Z</time>
      </trkpt>
      <trkpt lat="48.03167" lon="-4.44807">
        <ele>39.9</ele>
        <time>2025-01-28T09:15:32Z</time>
      </trkpt>
      <trkpt lat="48.03167" lon="-4.44821">
        <ele>40.7</ele>
        <time>2025-01-28T09:15:40Z</time>
      </trkpt>
      <trkpt lat="48.03166" lon="-4.44835">
        <ele>39.9</ele>
        <time>2025-01-28T09:15:54Z</time>
      </trkpt>
      <trkpt lat="48.03165" lon="-4.44849">
        <ele>39.4</ele>
        <time>2025-01-28T09:16:29Z</time>
      </trkpt>
      <trkpt lat="48.03163" lon="-4.44865">
        <ele>38.6</ele>
        <time>2025-01-28T09:16:38Z</time>
      </trkpt>
      <trkpt lat="48.03162" lon="-4.44879">
        <ele>38.6</ele>
        <time>2025-01-28T09:16:45Z</time>
      </trkpt>
      <trkpt lat="48.03164" lon="-4.44894">
        <ele>38</ele>
        <time>2025-01-28T09:16:53Z</time>
      </trkpt>
      <trkpt lat="48.03165" lon="-4.44908">
        <ele>38</ele>
        <time>2025-01-28T09:17:00Z</time>
      </trkpt>
      <trkpt lat="48.03164" lon="-4.44923">
        <ele>38.5</ele>
        <time>2025-01-28T09:17:09Z</time>
      </trkpt>
      <trkpt lat="48.03164" lon="-4.44937">
        <ele>38.3</ele>
        <time>2025-01-28T09:17:17Z</time>
      </trkpt>
      <trkpt lat="48.03165" lon="-4.44952">
        <ele>38.9</ele>
        <time>2025-01-28T09:17:25Z</time>
      </trkpt>
      <trkpt lat="48.03165" lon="-4.44967">
        <ele>39.2</ele>
        <time>2025-01-28T09:17:33Z</time>
      </trkpt>
      <trkpt lat="48.03165" lon="-4.44981">
        <ele>39.7</ele>
        <time>2025-01-28T09:17:40Z</time>
      </trkpt>
      <trkpt lat="48.03167" lon="-4.44995">
        <ele>39.7</ele>
        <time>2025-01-28T09:17:48Z</time>
      </trkpt>
      <trkpt lat="48.03166" lon="-4.45009">
        <ele>40.2</ele>
        <time>2025-01-28T09:17:55Z</time>
      </trkpt>
      <trkpt lat="48.03167" lon="-4.45024">
        <ele>40</ele>
        <time>2025-01-28T09:18:03Z</time>
      </trkpt>
      <trkpt lat="48.03167" lon="-4.45038">
        <ele>39.6</ele>
        <time>2025-01-28T09:18:11Z</time>
      </trkpt>
      <trkpt lat="48.03165" lon="-4.45053">
        <ele>41.8</ele>
        <time>2025-01-28T09:18:19Z</time>
      </trkpt>
      <trkpt lat="48.03166" lon="-4.45067">
        <ele>42.3</ele>
        <time>2025-01-28T09:18:27Z</time>
      </trkpt>
      <trkpt lat="48.03166" lon="-4.45082">
        <ele>42.7</ele>
        <time>2025-01-28T09:18:37Z</time>
      </trkpt>
      <trkpt lat="48.03166" lon="-4.45082">
        <ele>42.7</ele>
        <time>2025-01-28T09:18:37Z</time>
      </trkpt>
      <trkpt lat="48.03165" lon="-4.45096">
        <ele>43.1</ele>
        <time>2025-01-28T09:18:46Z</time>
      </trkpt>
      <trkpt lat="48.03165" lon="-4.45111">
        <ele>43.2</ele>
        <time>2025-01-28T09:18:56Z</time>
      </trkpt>
      <trkpt lat="48.03161" lon="-4.45124">
        <ele>44.8</ele>
        <time>2025-01-28T09:19:09Z</time>
      </trkpt>
      <trkpt lat="48.03157" lon="-4.45136">
        <ele>44.5</ele>
        <time>2025-01-28T09:20:40Z</time>
      </trkpt>
      <trkpt lat="48.03148" lon="-4.45141">
        <ele>44.6</ele>
        <time>2025-01-28T09:20:58Z</time>
      </trkpt>
      <trkpt lat="48.03138" lon="-4.45142">
        <ele>46</ele>
        <time>2025-01-28T09:21:11Z</time>
      </trkpt>
      <trkpt lat="48.03129" lon="-4.45144">
        <ele>47.3</ele>
        <time>2025-01-28T09:21:21Z</time>
      </trkpt>
      <trkpt lat="48.03121" lon="-4.45151">
        <ele>49</ele>
        <time>2025-01-28T09:21:34Z</time>
      </trkpt>
      <trkpt lat="48.03112" lon="-4.45155">
        <ele>51.2</ele>
        <time>2025-01-28T09:21:47Z</time>
      </trkpt>
      <trkpt lat="48.03103" lon="-4.45157">
        <ele>51.1</ele>
        <time>2025-01-28T09:23:11Z</time>
      </trkpt>
      <trkpt lat="48.03095" lon="-4.45164">
        <ele>53.6</ele>
        <time>2025-01-28T09:23:27Z</time>
      </trkpt>
      <trkpt lat="48.03086" lon="-4.45169">
        <ele>54.3</ele>
        <time>2025-01-28T09:23:37Z</time>
      </trkpt>
      <trkpt lat="48.03077" lon="-4.45172">
        <ele>54.9</ele>
        <time>2025-01-28T09:23:47Z</time>
      </trkpt>
      <trkpt lat="48.03067" lon="-4.45174">
        <ele>55.4</ele>
        <time>2025-01-28T09:23:57Z</time>
      </trkpt>
      <trkpt lat="48.03058" lon="-4.45178">
        <ele>55.5</ele>
        <time>2025-01-28T09:24:06Z</time>
      </trkpt>
      <trkpt lat="48.03049" lon="-4.45183">
        <ele>56.3</ele>
        <time>2025-01-28T09:24:15Z</time>
      </trkpt>
      <trkpt lat="48.0304" lon="-4.45186">
        <ele>56.7</ele>
        <time>2025-01-28T09:24:23Z</time>
      </trkpt>
      <trkpt lat="48.03031" lon="-4.4519">
        <ele>57</ele>
        <time>2025-01-28T09:24:33Z</time>
      </trkpt>
      <trkpt lat="48.03022" lon="-4.45193">
        <ele>56.9</ele>
        <time>2025-01-28T09:24:42Z</time>
      </trkpt>
      <trkpt lat="48.03012" lon="-4.45195">
        <ele>56.8</ele>
        <time>2025-01-28T09:24:50Z</time>
      </trkpt>
      <trkpt lat="48.03004" lon="-4.45199">
        <ele>56.4</ele>
        <time>2025-01-28T09:24:57Z</time>
      </trkpt>
      <trkpt lat="48.02994" lon="-4.452">
        <ele>56.9</ele>
        <time>2025-01-28T09:25:06Z</time>
      </trkpt>
      <trkpt lat="48.02984" lon="-4.45199">
        <ele>56.8</ele>
        <time>2025-01-28T09:25:14Z</time>
      </trkpt>
      <trkpt lat="48.02975" lon="-4.45196">
        <ele>56.7</ele>
        <time>2025-01-28T09:25:22Z</time>
      </trkpt>
      <trkpt lat="48.02966" lon="-4.45196">
        <ele>56.4</ele>
        <time>2025-01-28T09:25:33Z</time>
      </trkpt>
      <trkpt lat="48.02956" lon="-4.45197">
        <ele>56.5</ele>
        <time>2025-01-28T09:25:43Z</time>
      </trkpt>
      <trkpt lat="48.0295" lon="-4.45207">
        <ele>55.7</ele>
        <time>2025-01-28T09:26:26Z</time>
      </trkpt>
      <trkpt lat="48.02947" lon="-4.4522">
        <ele>55.8</ele>
        <time>2025-01-28T09:26:35Z</time>
      </trkpt>
      <trkpt lat="48.02947" lon="-4.45233">
        <ele>55.7</ele>
        <time>2025-01-28T09:26:45Z</time>
      </trkpt>
      <trkpt lat="48.02938" lon="-4.45238">
        <ele>55.3</ele>
        <time>2025-01-28T09:26:56Z</time>
      </trkpt>
      <trkpt lat="48.02929" lon="-4.45239">
        <ele>54.5</ele>
        <time>2025-01-28T09:27:06Z</time>
      </trkpt>
      <trkpt lat="48.02922" lon="-4.45249">
        <ele>54.2</ele>
        <time>2025-01-28T09:27:15Z</time>
      </trkpt>
      <trkpt lat="48.02921" lon="-4.45263">
        <ele>54.3</ele>
        <time>2025-01-28T09:27:23Z</time>
      </trkpt>
      <trkpt lat="48.02918" lon="-4.45276">
        <ele>54.1</ele>
        <time>2025-01-28T09:27:32Z</time>
      </trkpt>
      <trkpt lat="48.02915" lon="-4.4529">
        <ele>54.2</ele>
        <time>2025-01-28T09:27:52Z</time>
      </trkpt>
      <trkpt lat="48.02914" lon="-4.45304">
        <ele>54.2</ele>
        <time>2025-01-28T09:28:02Z</time>
      </trkpt>
      <trkpt lat="48.02915" lon="-4.4529">
        <ele>54.3</ele>
        <time>2025-01-28T09:28:27Z</time>
      </trkpt>
      <trkpt lat="48.02906" lon="-4.45289">
        <ele>53.7</ele>
        <time>2025-01-28T09:28:36Z</time>
      </trkpt>
      <trkpt lat="48.02897" lon="-4.45289">
        <ele>52.9</ele>
        <time>2025-01-28T09:28:47Z</time>
      </trkpt>
      <trkpt lat="48.02888" lon="-4.45291">
        <ele>52.6</ele>
        <time>2025-01-28T09:28:59Z</time>
      </trkpt>
      <trkpt lat="48.02878" lon="-4.45292">
        <ele>52.3</ele>
        <time>2025-01-28T09:29:09Z</time>
      </trkpt>
      <trkpt lat="48.02869" lon="-4.4529">
        <ele>52.1</ele>
        <time>2025-01-28T09:29:18Z</time>
      </trkpt>
      <trkpt lat="48.02859" lon="-4.4529">
        <ele>51.4</ele>
        <time>2025-01-28T09:29:29Z</time>
      </trkpt>
      <trkpt lat="48.02849" lon="-4.4529">
        <ele>51</ele>
        <time>2025-01-28T09:29:36Z</time>
      </trkpt>
      <trkpt lat="48.02839" lon="-4.45291">
        <ele>50.4</ele>
        <time>2025-01-28T09:29:44Z</time>
      </trkpt>
      <trkpt lat="48.02829" lon="-4.45291">
        <ele>50</ele>
        <time>2025-01-28T09:29:51Z</time>
      </trkpt>
      <trkpt lat="48.02819" lon="-4.45289">
        <ele>49.8</ele>
        <time>2025-01-28T09:29:58Z</time>
      </trkpt>
      <trkpt lat="48.02816" lon="-4.45276">
        <ele>49.1</ele>
        <time>2025-01-28T09:30:07Z</time>
      </trkpt>
      <trkpt lat="48.02814" lon="-4.45262">
        <ele>49.3</ele>
        <time>2025-01-28T09:30:15Z</time>
      </trkpt>
      <trkpt lat="48.02806" lon="-4.45255">
        <ele>49</ele>
        <time>2025-01-28T09:30:23Z</time>
      </trkpt>
      <trkpt lat="48.02796" lon="-4.45256">
        <ele>48.1</ele>
        <time>2025-01-28T09:30:34Z</time>
      </trkpt>
      <trkpt lat="48.02786" lon="-4.45259">
        <ele>47.4</ele>
        <time>2025-01-28T09:30:43Z</time>
      </trkpt>
      <trkpt lat="48.0278" lon="-4.45249">
        <ele>46.8</ele>
        <time>2025-01-28T09:30:52Z</time>
      </trkpt>
      <trkpt lat="48.02787" lon="-4.4524">
        <ele>46.9</ele>
        <time>2025-01-28T09:31:02Z</time>
      </trkpt>
      <trkpt lat="48.02792" lon="-4.45228">
        <ele>47.5</ele>
        <time>2025-01-28T09:31:11Z</time>
      </trkpt>
      <trkpt lat="48.02796" lon="-4.45214">
        <ele>48</ele>
        <time>2025-01-28T09:31:19Z</time>
      </trkpt>
      <trkpt lat="48.02802" lon="-4.45204">
        <ele>47.9</ele>
        <time>2025-01-28T09:31:28Z</time>
      </trkpt>
      <trkpt lat="48.02808" lon="-4.45193">
        <ele>47.9</ele>
        <time>2025-01-28T09:31:35Z</time>
      </trkpt>
      <trkpt lat="48.02813" lon="-4.45181">
        <ele>48.4</ele>
        <time>2025-01-28T09:31:42Z</time>
      </trkpt>
      <trkpt lat="48.0282" lon="-4.4517">
        <ele>48.8</ele>
        <time>2025-01-28T09:31:50Z</time>
      </trkpt>
      <trkpt lat="48.02826" lon="-4.45158">
        <ele>49.5</ele>
        <time>2025-01-28T09:31:58Z</time>
      </trkpt>
      <trkpt lat="48.02828" lon="-4.45143">
        <ele>49.5</ele>
        <time>2025-01-28T09:32:06Z</time>
      </trkpt>
      <trkpt lat="48.02827" lon="-4.45129">
        <ele>49.5</ele>
        <time>2025-01-28T09:32:14Z</time>
      </trkpt>
      <trkpt lat="48.02823" lon="-4.45117">
        <ele>50</ele>
        <time>2025-01-28T09:32:20Z</time>
      </trkpt>
      <trkpt lat="48.02818" lon="-4.45105">
        <ele>49.9</ele>
        <time>2025-01-28T09:32:27Z</time>
      </trkpt>
      <trkpt lat="48.02813" lon="-4.45093">
        <ele>50.5</ele>
        <time>2025-01-28T09:32:33Z</time>
      </trkpt>
      <trkpt lat="48.02804" lon="-4.45087">
        <ele>51.9</ele>
        <time>2025-01-28T09:32:41Z</time>
      </trkpt>
      <trkpt lat="48.02795" lon="-4.45085">
        <ele>51.4</ele>
        <time>2025-01-28T09:32:49Z</time>
      </trkpt>
      <trkpt lat="48.02785" lon="-4.45084">
        <ele>50.7</ele>
        <time>2025-01-28T09:32:57Z</time>
      </trkpt>
      <trkpt lat="48.02776" lon="-4.4508">
        <ele>50.6</ele>
        <time>2025-01-28T09:33:06Z</time>
      </trkpt>
      <trkpt lat="48.02772" lon="-4.45066">
        <ele>50.6</ele>
        <time>2025-01-28T09:33:16Z</time>
      </trkpt>
      <trkpt lat="48.02768" lon="-4.45053">
        <ele>51</ele>
        <time>2025-01-28T09:33:27Z</time>
      </trkpt>
      <trkpt lat="48.02762" lon="-4.45042">
        <ele>51.2</ele>
        <time>2025-01-28T09:33:35Z</time>
      </trkpt>
      <trkpt lat="48.02756" lon="-4.45031">
        <ele>51.3</ele>
        <time>2025-01-28T09:33:43Z</time>
      </trkpt>
      <trkpt lat="48.0275" lon="-4.45019">
        <ele>51.2</ele>
        <time>2025-01-28T09:33:50Z</time>
      </trkpt>
      <trkpt lat="48.02745" lon="-4.45008">
        <ele>51.2</ele>
        <time>2025-01-28T09:33:57Z</time>
      </trkpt>
      <trkpt lat="48.02738" lon="-4.44998">
        <ele>51</ele>
        <time>2025-01-28T09:34:04Z</time>
      </trkpt>
      <trkpt lat="48.0273" lon="-4.44989">
        <ele>51.1</ele>
        <time>2025-01-28T09:34:11Z</time>
      </trkpt>
      <trkpt lat="48.02722" lon="-4.44981">
        <ele>51.4</ele>
        <time>2025-01-28T09:34:18Z</time>
      </trkpt>
      <trkpt lat="48.02714" lon="-4.44973">
        <ele>50.9</ele>
        <time>2025-01-28T09:34:25Z</time>
      </trkpt>
      <trkpt lat="48.02706" lon="-4.44966">
        <ele>50.9</ele>
        <time>2025-01-28T09:34:33Z</time>
      </trkpt>
      <trkpt lat="48.02699" lon="-4.44957">
        <ele>50.8</ele>
        <time>2025-01-28T09:34:42Z</time>
      </trkpt>
      <trkpt lat="48.02691" lon="-4.44947">
        <ele>51</ele>
        <time>2025-01-28T09:34:51Z</time>
      </trkpt>
      <trkpt lat="48.02683" lon="-4.44939">
        <ele>50.7</ele>
        <time>2025-01-28T09:35:00Z</time>
      </trkpt>
      <trkpt lat="48.02675" lon="-4.44931">
        <ele>50.9</ele>
        <time>2025-01-28T09:35:10Z</time>
      </trkpt>
      <trkpt lat="48.02667" lon="-4.44923">
        <ele>51.4</ele>
        <time>2025-01-28T09:35:17Z</time>
      </trkpt>
      <trkpt lat="48.02659" lon="-4.44914">
        <ele>51.5</ele>
        <time>2025-01-28T09:35:25Z</time>
      </trkpt>
      <trkpt lat="48.02651" lon="-4.44907">
        <ele>50.5</ele>
        <time>2025-01-28T09:35:35Z</time>
      </trkpt>
      <trkpt lat="48.02642" lon="-4.44899">
        <ele>50.5</ele>
        <time>2025-01-28T09:35:42Z</time>
      </trkpt>
      <trkpt lat="48.02634" lon="-4.44891">
        <ele>50.6</ele>
        <time>2025-01-28T09:35:48Z</time>
      </trkpt>
      <trkpt lat="48.02625" lon="-4.44885">
        <ele>50.4</ele>
        <time>2025-01-28T09:35:54Z</time>
      </trkpt>
      <trkpt lat="48.02617" lon="-4.4488">
        <ele>49.8</ele>
        <time>2025-01-28T09:36:01Z</time>
      </trkpt>
      <trkpt lat="48.02607" lon="-4.44874">
        <ele>49.4</ele>
        <time>2025-01-28T09:36:08Z</time>
      </trkpt>
      <trkpt lat="48.02598" lon="-4.44868">
        <ele>49</ele>
        <time>2025-01-28T09:36:14Z</time>
      </trkpt>
      <trkpt lat="48.02598" lon="-4.44868">
        <ele>49</ele>
        <time>2025-01-28T09:36:14Z</time>
      </trkpt>
      <trkpt lat="48.0259" lon="-4.44861">
        <ele>48.9</ele>
        <time>2025-01-28T09:36:20Z</time>
      </trkpt>
      <trkpt lat="48.02585" lon="-4.4485">
        <ele>49</ele>
        <time>2025-01-28T09:36:29Z</time>
      </trkpt>
      <trkpt lat="48.02577" lon="-4.44839">
        <ele>49.1</ele>
        <time>2025-01-28T09:36:38Z</time>
      </trkpt>
      <trkpt lat="48.02572" lon="-4.44827">
        <ele>49.2</ele>
        <time>2025-01-28T09:36:46Z</time>
      </trkpt>
      <trkpt lat="48.02568" lon="-4.44814">
        <ele>49.6</ele>
        <time>2025-01-28T09:36:58Z</time>
      </trkpt>
      <trkpt lat="48.02563" lon="-4.44803">
        <ele>50</ele>
        <time>2025-01-28T09:37:18Z</time>
      </trkpt>
      <trkpt lat="48.02562" lon="-4.44789">
        <ele>49.9</ele>
        <time>2025-01-28T09:38:08Z</time>
      </trkpt>
      <trkpt lat="48.02566" lon="-4.44776">
        <ele>50.5</ele>
        <time>2025-01-28T09:38:17Z</time>
      </trkpt>
      <trkpt lat="48.02568" lon="-4.44762">
        <ele>50.9</ele>
        <time>2025-01-28T09:38:27Z</time>
      </trkpt>
      <trkpt lat="48.02574" lon="-4.44752">
        <ele>50.8</ele>
        <time>2025-01-28T09:38:35Z</time>
      </trkpt>
      <trkpt lat="48.0258" lon="-4.44742">
        <ele>52.1</ele>
        <time>2025-01-28T09:38:48Z</time>
      </trkpt>
      <trkpt lat="48.02589" lon="-4.44736">
        <ele>53.3</ele>
        <time>2025-01-28T09:39:03Z</time>
      </trkpt>
      <trkpt lat="48.02597" lon="-4.4473">
        <ele>54</ele>
        <time>2025-01-28T09:39:13Z</time>
      </trkpt>
      <trkpt lat="48.02605" lon="-4.44722">
        <ele>55.1</ele>
        <time>2025-01-28T09:39:23Z</time>
      </trkpt>
      <trkpt lat="48.02613" lon="-4.44713">
        <ele>55.5</ele>
        <time>2025-01-28T09:39:30Z</time>
      </trkpt>
      <trkpt lat="48.02619" lon="-4.44703">
        <ele>55.9</ele>
        <time>2025-01-28T09:39:38Z</time>
      </trkpt>
      <trkpt lat="48.02627" lon="-4.44695">
        <ele>56.1</ele>
        <time>2025-01-28T09:39:46Z</time>
      </trkpt>
      <trkpt lat="48.02629" lon="-4.44682">
        <ele>56.4</ele>
        <time>2025-01-28T09:40:34Z</time>
      </trkpt>
      <trkpt lat="48.02636" lon="-4.44672">
        <ele>56.8</ele>
        <time>2025-01-28T09:41:04Z</time>
      </trkpt>
      <trkpt lat="48.02644" lon="-4.44666">
        <ele>57</ele>
        <time>2025-01-28T09:41:41Z</time>
      </trkpt>
      <trkpt lat="48.02651" lon="-4.44656">
        <ele>56.6</ele>
        <time>2025-01-28T09:41:53Z</time>
      </trkpt>
      <trkpt lat="48.02658" lon="-4.44647">
        <ele>56.8</ele>
        <time>2025-01-28T09:42:02Z</time>
      </trkpt>
      <trkpt lat="48.02666" lon="-4.4464">
        <ele>57</ele>
        <time>2025-01-28T09:42:23Z</time>
      </trkpt>
      <trkpt lat="48.02659" lon="-4.4465">
        <ele>57.3</ele>
        <time>2025-01-28T09:42:54Z</time>
      </trkpt>
      <trkpt lat="48.02651" lon="-4.4466">
        <ele>56.9</ele>
        <time>2025-01-28T09:43:03Z</time>
      </trkpt>
      <trkpt lat="48.02643" lon="-4.44668">
        <ele>56.5</ele>
        <time>2025-01-28T09:43:11Z</time>
      </trkpt>
      <trkpt lat="48.02634" lon="-4.44672">
        <ele>56.5</ele>
        <time>2025-01-28T09:44:50Z</time>
      </trkpt>
      <trkpt lat="48.02625" lon="-4.44668">
        <ele>56.7</ele>
        <time>2025-01-28T09:45:52Z</time>
      </trkpt>
      <trkpt lat="48.02615" lon="-4.44666">
        <ele>56.9</ele>
        <time>2025-01-28T09:46:02Z</time>
      </trkpt>
      <trkpt lat="48.02606" lon="-4.44664">
        <ele>55.5</ele>
        <time>2025-01-28T09:46:11Z</time>
      </trkpt>
      <trkpt lat="48.02596" lon="-4.44662">
        <ele>54.9</ele>
        <time>2025-01-28T09:46:20Z</time>
      </trkpt>
      <trkpt lat="48.02587" lon="-4.44657">
        <ele>54.9</ele>
        <time>2025-01-28T09:46:28Z</time>
      </trkpt>
      <trkpt lat="48.02578" lon="-4.44657">
        <ele>54.7</ele>
        <time>2025-01-28T09:46:35Z</time>
      </trkpt>
      <trkpt lat="48.02568" lon="-4.44656">
        <ele>54.3</ele>
        <time>2025-01-28T09:46:42Z</time>
      </trkpt>
      <trkpt lat="48.02559" lon="-4.44656">
        <ele>53.5</ele>
        <time>2025-01-28T09:46:50Z</time>
      </trkpt>
      <trkpt lat="48.0255" lon="-4.44657">
        <ele>52.8</ele>
        <time>2025-01-28T09:46:58Z</time>
      </trkpt>
      <trkpt lat="48.0254" lon="-4.44661">
        <ele>52.3</ele>
        <time>2025-01-28T09:47:06Z</time>
      </trkpt>
      <trkpt lat="48.02531" lon="-4.44668">
        <ele>52</ele>
        <time>2025-01-28T09:47:15Z</time>
      </trkpt>
      <trkpt lat="48.02523" lon="-4.44675">
        <ele>51.5</ele>
        <time>2025-01-28T09:47:25Z</time>
      </trkpt>
      <trkpt lat="48.02516" lon="-4.44685">
        <ele>51.2</ele>
        <time>2025-01-28T09:47:35Z</time>
      </trkpt>
      <trkpt lat="48.02509" lon="-4.44695">
        <ele>50.6</ele>
        <time>2025-01-28T09:47:45Z</time>
      </trkpt>
      <trkpt lat="48.02503" lon="-4.44705">
        <ele>49.7</ele>
        <time>2025-01-28T09:47:53Z</time>
      </trkpt>
      <trkpt lat="48.02497" lon="-4.44716">
        <ele>49.1</ele>
        <time>2025-01-28T09:48:02Z</time>
      </trkpt>
      <trkpt lat="48.02491" lon="-4.44727">
        <ele>48.8</ele>
        <time>2025-01-28T09:48:11Z</time>
      </trkpt>
      <trkpt lat="48.02489" lon="-4.4474">
        <ele>48</ele>
        <time>2025-01-28T09:48:17Z</time>
      </trkpt>
      <trkpt lat="48.02486" lon="-4.44754">
        <ele>47.7</ele>
        <time>2025-01-28T09:48:22Z</time>
      </trkpt>
      <trkpt lat="48.02482" lon="-4.44766">
        <ele>47.3</ele>
        <time>2025-01-28T09:48:30Z</time>
      </trkpt>
      <trkpt lat="48.02477" lon="-4.44779">
        <ele>46.9</ele>
        <time>2025-01-28T09:48:37Z</time>
      </trkpt>
      <trkpt lat="48.02472" lon="-4.44791">
        <ele>46.7</ele>
        <time>2025-01-28T09:48:43Z</time>
      </trkpt>
      <trkpt lat="48.02468" lon="-4.44805">
        <ele>46.2</ele>
        <time>2025-01-28T09:48:51Z</time>
      </trkpt>
      <trkpt lat="48.02463" lon="-4.44818">
        <ele>45.7</ele>
        <time>2025-01-28T09:48:58Z</time>
      </trkpt>
      <trkpt lat="48.02458" lon="-4.44831">
        <ele>45.2</ele>
        <time>2025-01-28T09:49:06Z</time>
      </trkpt>
      <trkpt lat="48.02453" lon="-4.44842">
        <ele>45</ele>
        <time>2025-01-28T09:49:14Z</time>
      </trkpt>
      <trkpt lat="48.0245" lon="-4.44856">
        <ele>44.3</ele>
        <time>2025-01-28T09:49:22Z</time>
      </trkpt>
      <trkpt lat="48.02447" lon="-4.44869">
        <ele>43.7</ele>
        <time>2025-01-28T09:49:28Z</time>
      </trkpt>
      <trkpt lat="48.02441" lon="-4.44881">
        <ele>43.3</ele>
        <time>2025-01-28T09:49:36Z</time>
      </trkpt>
      <trkpt lat="48.02433" lon="-4.44891">
        <ele>43.4</ele>
        <time>2025-01-28T09:49:44Z</time>
      </trkpt>
      <trkpt lat="48.02428" lon="-4.44904">
        <ele>43</ele>
        <time>2025-01-28T09:49:52Z</time>
      </trkpt>
      <trkpt lat="48.02422" lon="-4.44915">
        <ele>42.5</ele>
        <time>2025-01-28T09:50:00Z</time>
      </trkpt>
      <trkpt lat="48.02415" lon="-4.44927">
        <ele>42.3</ele>
        <time>2025-01-28T09:50:08Z</time>
      </trkpt>
      <trkpt lat="48.0241" lon="-4.4494">
        <ele>42</ele>
        <time>2025-01-28T09:50:15Z</time>
      </trkpt>
      <trkpt lat="48.02405" lon="-4.44953">
        <ele>41</ele>
        <time>2025-01-28T09:50:24Z</time>
      </trkpt>
      <trkpt lat="48.02399" lon="-4.44964">
        <ele>40.5</ele>
        <time>2025-01-28T09:50:31Z</time>
      </trkpt>
      <trkpt lat="48.02399" lon="-4.44978">
        <ele>40.1</ele>
        <time>2025-01-28T09:50:39Z</time>
      </trkpt>
      <trkpt lat="48.02402" lon="-4.44992">
        <ele>39.2</ele>
        <time>2025-01-28T09:50:49Z</time>
      </trkpt>
      <trkpt lat="48.02398" lon="-4.45006">
        <ele>38.5</ele>
        <time>2025-01-28T09:50:56Z</time>
      </trkpt>
      <trkpt lat="48.02396" lon="-4.45019">
        <ele>37.9</ele>
        <time>2025-01-28T09:51:04Z</time>
      </trkpt>
      <trkpt lat="48.02402" lon="-4.4503">
        <ele>37.4</ele>
        <time>2025-01-28T09:51:11Z</time>
      </trkpt>
      <trkpt lat="48.0241" lon="-4.4504">
        <ele>37.1</ele>
        <time>2025-01-28T09:51:21Z</time>
      </trkpt>
      <trkpt lat="48.02418" lon="-4.45049">
        <ele>37.9</ele>
        <time>2025-01-28T09:51:30Z</time>
      </trkpt>
      <trkpt lat="48.02426" lon="-4.45054">
        <ele>37.2</ele>
        <time>2025-01-28T09:51:38Z</time>
      </trkpt>
      <trkpt lat="48.02435" lon="-4.4506">
        <ele>37.3</ele>
        <time>2025-01-28T09:51:46Z</time>
      </trkpt>
      <trkpt lat="48.02444" lon="-4.45067">
        <ele>37</ele>
        <time>2025-01-28T09:51:52Z</time>
      </trkpt>
      <trkpt lat="48.02451" lon="-4.45075">
        <ele>36.9</ele>
        <time>2025-01-28T09:52:02Z</time>
      </trkpt>
      <trkpt lat="48.02459" lon="-4.45083">
        <ele>36.3</ele>
        <time>2025-01-28T09:52:08Z</time>
      </trkpt>
      <trkpt lat="48.02459" lon="-4.45097">
        <ele>36.2</ele>
        <time>2025-01-28T09:52:20Z</time>
      </trkpt>
      <trkpt lat="48.02453" lon="-4.45108">
        <ele>35.6</ele>
        <time>2025-01-28T09:53:21Z</time>
      </trkpt>
      <trkpt lat="48.02444" lon="-4.45113">
        <ele>34.9</ele>
        <time>2025-01-28T09:53:32Z</time>
      </trkpt>
      <trkpt lat="48.02437" lon="-4.45121">
        <ele>34.7</ele>
        <time>2025-01-28T09:53:44Z</time>
      </trkpt>
      <trkpt lat="48.02431" lon="-4.45131">
        <ele>34.5</ele>
        <time>2025-01-28T09:54:01Z</time>
      </trkpt>
      <trkpt lat="48.02423" lon="-4.4514">
        <ele>34.2</ele>
        <time>2025-01-28T09:54:11Z</time>
      </trkpt>
      <trkpt lat="48.02418" lon="-4.45151">
        <ele>34.7</ele>
        <time>2025-01-28T09:54:33Z</time>
      </trkpt>
      <trkpt lat="48.02409" lon="-4.45159">
        <ele>34</ele>
        <time>2025-01-28T09:55:04Z</time>
      </trkpt>
      <trkpt lat="48.024" lon="-4.45156">
        <ele>34</ele>
        <time>2025-01-28T09:55:12Z</time>
      </trkpt>
      <trkpt lat="48.02393" lon="-4.45166">
        <ele>34</ele>
        <time>2025-01-28T09:55:22Z</time>
      </trkpt>
      <trkpt lat="48.02387" lon="-4.45176">
        <ele>34.2</ele>
        <time>2025-01-28T09:55:59Z</time>
      </trkpt>
      <trkpt lat="48.02381" lon="-4.45188">
        <ele>34.2</ele>
        <time>2025-01-28T09:56:29Z</time>
      </trkpt>
      <trkpt lat="48.02375" lon="-4.45198">
        <ele>34.8</ele>
        <time>2025-01-28T09:56:49Z</time>
      </trkpt>
      <trkpt lat="48.02372" lon="-4.45212">
        <ele>36.6</ele>
        <time>2025-01-28T09:57:04Z</time>
      </trkpt>
      <trkpt lat="48.02381" lon="-4.4521">
        <ele>36.3</ele>
        <time>2025-01-28T09:57:15Z</time>
      </trkpt>
      <trkpt lat="48.02373" lon="-4.45205">
        <ele>36.5</ele>
        <time>2025-01-28T09:57:43Z</time>
      </trkpt>
      <trkpt lat="48.02368" lon="-4.45194">
        <ele>36.1</ele>
        <time>2025-01-28T09:57:51Z</time>
      </trkpt>
      <trkpt lat="48.02363" lon="-4.45182">
        <ele>36.1</ele>
        <time>2025-01-28T09:58:15Z</time>
      </trkpt>
      <trkpt lat="48.02357" lon="-4.45172">
        <ele>35.6</ele>
        <time>2025-01-28T09:58:26Z</time>
      </trkpt>
      <trkpt lat="48.02351" lon="-4.4516">
        <ele>35.5</ele>
        <time>2025-01-28T09:58:36Z</time>
      </trkpt>
      <trkpt lat="48.02351" lon="-4.4516">
        <ele>35.5</ele>
        <time>2025-01-28T09:58:36Z</time>
      </trkpt>
      <trkpt lat="48.02344" lon="-4.45149">
        <ele>35.4</ele>
        <time>2025-01-28T09:58:44Z</time>
      </trkpt>
      <trkpt lat="48.02337" lon="-4.45141">
        <ele>35.6</ele>
        <time>2025-01-28T09:58:51Z</time>
      </trkpt>
      <trkpt lat="48.02332" lon="-4.45128">
        <ele>35.8</ele>
        <time>2025-01-28T09:58:59Z</time>
      </trkpt>
      <trkpt lat="48.02329" lon="-4.45115">
        <ele>35.7</ele>
        <time>2025-01-28T09:59:07Z</time>
      </trkpt>
      <trkpt lat="48.02323" lon="-4.45105">
        <ele>35.4</ele>
        <time>2025-01-28T09:59:16Z</time>
      </trkpt>
      <trkpt lat="48.02318" lon="-4.45092">
        <ele>36</ele>
        <time>2025-01-28T09:59:27Z</time>
      </trkpt>
      <trkpt lat="48.0231" lon="-4.45083">
        <ele>36</ele>
        <time>2025-01-28T09:59:39Z</time>
      </trkpt>
      <trkpt lat="48.02302" lon="-4.45077">
        <ele>36.3</ele>
        <time>2025-01-28T09:59:46Z</time>
      </trkpt>
      <trkpt lat="48.02295" lon="-4.45067">
        <ele>36.4</ele>
        <time>2025-01-28T09:59:54Z</time>
      </trkpt>
      <trkpt lat="48.02287" lon="-4.4506">
        <ele>36.2</ele>
        <time>2025-01-28T10:00:02Z</time>
      </trkpt>
      <trkpt lat="48.02279" lon="-4.45053">
        <ele>35.9</ele>
        <time>2025-01-28T10:00:08Z</time>
      </trkpt>
      <trkpt lat="48.0227" lon="-4.45045">
        <ele>35.7</ele>
        <time>2025-01-28T10:00:15Z</time>
      </trkpt>
      <trkpt lat="48.02262" lon="-4.45038">
        <ele>35.5</ele>
        <time>2025-01-28T10:00:22Z</time>
      </trkpt>
      <trkpt lat="48.02253" lon="-4.45032">
        <ele>35.5</ele>
        <time>2025-01-28T10:00:27Z</time>
      </trkpt>
      <trkpt lat="48.02244" lon="-4.45027">
        <ele>35.4</ele>
        <time>2025-01-28T10:00:33Z</time>
      </trkpt>
      <trkpt lat="48.02235" lon="-4.45029">
        <ele>33.8</ele>
        <time>2025-01-28T10:02:48Z</time>
      </trkpt>
      <trkpt lat="48.02227" lon="-4.45037">
        <ele>33.7</ele>
        <time>2025-01-28T10:03:05Z</time>
      </trkpt>
      <trkpt lat="48.0222" lon="-4.45048">
        <ele>34.1</ele>
        <time>2025-01-28T10:03:13Z</time>
      </trkpt>
      <trkpt lat="48.02212" lon="-4.45056">
        <ele>34.5</ele>
        <time>2025-01-28T10:03:26Z</time>
      </trkpt>
      <trkpt lat="48.02205" lon="-4.45066">
        <ele>34.5</ele>
        <time>2025-01-28T10:03:33Z</time>
      </trkpt>
      <trkpt lat="48.02197" lon="-4.45073">
        <ele>34.7</ele>
        <time>2025-01-28T10:03:41Z</time>
      </trkpt>
      <trkpt lat="48.02187" lon="-4.45069">
        <ele>35</ele>
        <time>2025-01-28T10:03:49Z</time>
      </trkpt>
      <trkpt lat="48.02177" lon="-4.45074">
        <ele>34.9</ele>
        <time>2025-01-28T10:03:56Z</time>
      </trkpt>
      <trkpt lat="48.02169" lon="-4.45081">
        <ele>34.3</ele>
        <time>2025-01-28T10:04:04Z</time>
      </trkpt>
      <trkpt lat="48.02161" lon="-4.4509">
        <ele>34.2</ele>
        <time>2025-01-28T10:04:12Z</time>
      </trkpt>
      <trkpt lat="48.02154" lon="-4.45098">
        <ele>33.7</ele>
        <time>2025-01-28T10:04:20Z</time>
      </trkpt>
      <trkpt lat="48.02147" lon="-4.45109">
        <ele>34.7</ele>
        <time>2025-01-28T10:04:29Z</time>
      </trkpt>
      <trkpt lat="48.02142" lon="-4.45122">
        <ele>34.1</ele>
        <time>2025-01-28T10:04:52Z</time>
      </trkpt>
      <trkpt lat="48.02138" lon="-4.45134">
        <ele>34.3</ele>
        <time>2025-01-28T10:04:58Z</time>
      </trkpt>
      <trkpt lat="48.02134" lon="-4.45148">
        <ele>34.4</ele>
        <time>2025-01-28T10:05:05Z</time>
      </trkpt>
      <trkpt lat="48.02131" lon="-4.45162">
        <ele>34.4</ele>
        <time>2025-01-28T10:05:12Z</time>
      </trkpt>
      <trkpt lat="48.02128" lon="-4.45177">
        <ele>34.1</ele>
        <time>2025-01-28T10:05:19Z</time>
      </trkpt>
      <trkpt lat="48.02125" lon="-4.45191">
        <ele>34.1</ele>
        <time>2025-01-28T10:05:26Z</time>
      </trkpt>
      <trkpt lat="48.0212" lon="-4.45204">
        <ele>34.4</ele>
        <time>2025-01-28T10:05:33Z</time>
      </trkpt>
      <trkpt lat="48.02115" lon="-4.45218">
        <ele>33.7</ele>
        <time>2025-01-28T10:05:40Z</time>
      </trkpt>
      <trkpt lat="48.02111" lon="-4.45231">
        <ele>34</ele>
        <time>2025-01-28T10:05:47Z</time>
      </trkpt>
      <trkpt lat="48.02108" lon="-4.45244">
        <ele>34.4</ele>
        <time>2025-01-28T10:05:53Z</time>
      </trkpt>
      <trkpt lat="48.02104" lon="-4.45258">
        <ele>34.6</ele>
        <time>2025-01-28T10:06:00Z</time>
      </trkpt>
      <trkpt lat="48.021" lon="-4.45271">
        <ele>34.5</ele>
        <time>2025-01-28T10:06:07Z</time>
      </trkpt>
      <trkpt lat="48.02097" lon="-4.45285">
        <ele>34.6</ele>
        <time>2025-01-28T10:06:14Z</time>
      </trkpt>
      <trkpt lat="48.02094" lon="-4.45298">
        <ele>35</ele>
        <time>2025-01-28T10:06:21Z</time>
      </trkpt>
      <trkpt lat="48.02087" lon="-4.45309">
        <ele>34.7</ele>
        <time>2025-01-28T10:06:29Z</time>
      </trkpt>
      <trkpt lat="48.02077" lon="-4.45305">
        <ele>35.2</ele>
        <time>2025-01-28T10:06:37Z</time>
      </trkpt>
      <trkpt lat="48.02068" lon="-4.45302">
        <ele>35.2</ele>
        <time>2025-01-28T10:06:45Z</time>
      </trkpt>
      <trkpt lat="48.02058" lon="-4.45298">
        <ele>35.4</ele>
        <time>2025-01-28T10:06:53Z</time>
      </trkpt>
      <trkpt lat="48.02049" lon="-4.45293">
        <ele>35.6</ele>
        <time>2025-01-28T10:07:00Z</time>
      </trkpt>
      <trkpt lat="48.02041" lon="-4.4529">
        <ele>35.4</ele>
        <time>2025-01-28T10:07:07Z</time>
      </trkpt>
      <trkpt lat="48.02031" lon="-4.45287">
        <ele>35.3</ele>
        <time>2025-01-28T10:07:14Z</time>
      </trkpt>
      <trkpt lat="48.02022" lon="-4.45284">
        <ele>36.1</ele>
        <time>2025-01-28T10:07:23Z</time>
      </trkpt>
      <trkpt lat="48.02013" lon="-4.45278">
        <ele>36.1</ele>
        <time>2025-01-28T10:07:31Z</time>
      </trkpt>
      <trkpt lat="48.02005" lon="-4.45274">
        <ele>36</ele>
        <time>2025-01-28T10:07:38Z</time>
      </trkpt>
      <trkpt lat="48.01996" lon="-4.45269">
        <ele>35.8</ele>
        <time>2025-01-28T10:07:45Z</time>
      </trkpt>
      <trkpt lat="48.01987" lon="-4.45265">
        <ele>36.1</ele>
        <time>2025-01-28T10:07:52Z</time>
      </trkpt>
      <trkpt lat="48.01977" lon="-4.45261">
        <ele>36</ele>
        <time>2025-01-28T10:08:00Z</time>
      </trkpt>
      <trkpt lat="48.01968" lon="-4.45258">
        <ele>36.3</ele>
        <time>2025-01-28T10:08:07Z</time>
      </trkpt>
      <trkpt lat="48.01958" lon="-4.45253">
        <ele>36.5</ele>
        <time>2025-01-28T10:08:14Z</time>
      </trkpt>
      <trkpt lat="48.01949" lon="-4.4525">
        <ele>36.7</ele>
        <time>2025-01-28T10:08:21Z</time>
      </trkpt>
      <trkpt lat="48.0194" lon="-4.45245">
        <ele>36.6</ele>
        <time>2025-01-28T10:08:29Z</time>
      </trkpt>
      <trkpt lat="48.01931" lon="-4.45241">
        <ele>36.6</ele>
        <time>2025-01-28T10:08:36Z</time>
      </trkpt>
      <trkpt lat="48.01921" lon="-4.45237">
        <ele>36.5</ele>
        <time>2025-01-28T10:08:44Z</time>
      </trkpt>
      <trkpt lat="48.01914" lon="-4.45229">
        <ele>36.8</ele>
        <time>2025-01-28T10:08:51Z</time>
      </trkpt>
      <trkpt lat="48.01904" lon="-4.45224">
        <ele>36.8</ele>
        <time>2025-01-28T10:08:59Z</time>
      </trkpt>
      <trkpt lat="48.01894" lon="-4.4522">
        <ele>36.8</ele>
        <time>2025-01-28T10:09:07Z</time>
      </trkpt>
      <trkpt lat="48.01885" lon="-4.45215">
        <ele>37.1</ele>
        <time>2025-01-28T10:09:15Z</time>
      </trkpt>
      <trkpt lat="48.01876" lon="-4.4521">
        <ele>37.2</ele>
        <time>2025-01-28T10:09:22Z</time>
      </trkpt>
      <trkpt lat="48.01867" lon="-4.45205">
        <ele>37.8</ele>
        <time>2025-01-28T10:09:31Z</time>
      </trkpt>
      <trkpt lat="48.01857" lon="-4.45203">
        <ele>37.4</ele>
        <time>2025-01-28T10:09:38Z</time>
      </trkpt>
      <trkpt lat="48.01847" lon="-4.45198">
        <ele>37.3</ele>
        <time>2025-01-28T10:09:45Z</time>
      </trkpt>
      <trkpt lat="48.01838" lon="-4.45194">
        <ele>37</ele>
        <time>2025-01-28T10:09:52Z</time>
      </trkpt>
      <trkpt lat="48.01828" lon="-4.4519">
        <ele>37</ele>
        <time>2025-01-28T10:10:00Z</time>
      </trkpt>
      <trkpt lat="48.01819" lon="-4.45188">
        <ele>37</ele>
        <time>2025-01-28T10:10:07Z</time>
      </trkpt>
      <trkpt lat="48.01809" lon="-4.4519">
        <ele>37.2</ele>
        <time>2025-01-28T10:10:15Z</time>
      </trkpt>
      <trkpt lat="48.018" lon="-4.45193">
        <ele>37.4</ele>
        <time>2025-01-28T10:10:23Z</time>
      </trkpt>
      <trkpt lat="48.01791" lon="-4.45199">
        <ele>37.2</ele>
        <time>2025-01-28T10:10:30Z</time>
      </trkpt>
      <trkpt lat="48.01782" lon="-4.45204">
        <ele>37.2</ele>
        <time>2025-01-28T10:10:37Z</time>
      </trkpt>
      <trkpt lat="48.01772" lon="-4.45209">
        <ele>37.5</ele>
        <time>2025-01-28T10:10:45Z</time>
      </trkpt>
      <trkpt lat="48.01763" lon="-4.45212">
        <ele>37.4</ele>
        <time>2025-01-28T10:10:53Z</time>
      </trkpt>
      <trkpt lat="48.01754" lon="-4.45215">
        <ele>36.6</ele>
        <time>2025-01-28T10:11:00Z</time>
      </trkpt>
      <trkpt lat="48.01745" lon="-4.45219">
        <ele>36.6</ele>
        <time>2025-01-28T10:11:07Z</time>
      </trkpt>
      <trkpt lat="48.01736" lon="-4.45222">
        <ele>36.3</ele>
        <time>2025-01-28T10:11:14Z</time>
      </trkpt>
      <trkpt lat="48.01727" lon="-4.45225">
        <ele>36.1</ele>
        <time>2025-01-28T10:11:21Z</time>
      </trkpt>
      <trkpt lat="48.01718" lon="-4.45229">
        <ele>36.5</ele>
        <time>2025-01-28T10:11:28Z</time>
      </trkpt>
      <trkpt lat="48.01709" lon="-4.45233">
        <ele>36.3</ele>
        <time>2025-01-28T10:11:36Z</time>
      </trkpt>
      <trkpt lat="48.017" lon="-4.45237">
        <ele>36.2</ele>
        <time>2025-01-28T10:11:46Z</time>
      </trkpt>
      <trkpt lat="48.0169" lon="-4.45238">
        <ele>35.8</ele>
        <time>2025-01-28T10:11:53Z</time>
      </trkpt>
      <trkpt lat="48.0168" lon="-4.45241">
        <ele>35.4</ele>
        <time>2025-01-28T10:12:00Z</time>
      </trkpt>
      <trkpt lat="48.01671" lon="-4.4524">
        <ele>35</ele>
        <time>2025-01-28T10:12:07Z</time>
      </trkpt>
      <trkpt lat="48.01661" lon="-4.45238">
        <ele>34.9</ele>
        <time>2025-01-28T10:12:14Z</time>
      </trkpt>
      <trkpt lat="48.01651" lon="-4.45237">
        <ele>35.1</ele>
        <time>2025-01-28T10:12:21Z</time>
      </trkpt>
      <trkpt lat="48.01642" lon="-4.45233">
        <ele>35.2</ele>
        <time>2025-01-28T10:12:28Z</time>
      </trkpt>
      <trkpt lat="48.01632" lon="-4.45231">
        <ele>34.8</ele>
        <time>2025-01-28T10:12:35Z</time>
      </trkpt>
      <trkpt lat="48.01622" lon="-4.45229">
        <ele>34.2</ele>
        <time>2025-01-28T10:12:42Z</time>
      </trkpt>
      <trkpt lat="48.01622" lon="-4.45229">
        <ele>34.2</ele>
        <time>2025-01-28T10:12:42Z</time>
      </trkpt>
      <trkpt lat="48.01613" lon="-4.45225">
        <ele>34.4</ele>
        <time>2025-01-28T10:12:49Z</time>
      </trkpt>
      <trkpt lat="48.01604" lon="-4.45221">
        <ele>33.2</ele>
        <time>2025-01-28T10:12:56Z</time>
      </trkpt>
      <trkpt lat="48.01595" lon="-4.45219">
        <ele>32.9</ele>
        <time>2025-01-28T10:13:03Z</time>
      </trkpt>
      <trkpt lat="48.01586" lon="-4.45214">
        <ele>32.5</ele>
        <time>2025-01-28T10:13:24Z</time>
      </trkpt>
      <trkpt lat="48.01576" lon="-4.45212">
        <ele>32</ele>
        <time>2025-01-28T10:13:33Z</time>
      </trkpt>
      <trkpt lat="48.01566" lon="-4.4521">
        <ele>32.2</ele>
        <time>2025-01-28T10:13:43Z</time>
      </trkpt>
      <trkpt lat="48.01558" lon="-4.45204">
        <ele>32</ele>
        <time>2025-01-28T10:13:52Z</time>
      </trkpt>
      <trkpt lat="48.01549" lon="-4.4521">
        <ele>32.1</ele>
        <time>2025-01-28T10:14:14Z</time>
      </trkpt>
      <trkpt lat="48.01544" lon="-4.45222">
        <ele>32</ele>
        <time>2025-01-28T10:14:22Z</time>
      </trkpt>
      <trkpt lat="48.01543" lon="-4.45236">
        <ele>32.3</ele>
        <time>2025-01-28T10:14:38Z</time>
      </trkpt>
      <trkpt lat="48.01542" lon="-4.45251">
        <ele>32.5</ele>
        <time>2025-01-28T10:14:46Z</time>
      </trkpt>
      <trkpt lat="48.0154" lon="-4.45264">
        <ele>32.4</ele>
        <time>2025-01-28T10:14:54Z</time>
      </trkpt>
      <trkpt lat="48.0154" lon="-4.45278">
        <ele>32.4</ele>
        <time>2025-01-28T10:15:02Z</time>
      </trkpt>
      <trkpt lat="48.01541" lon="-4.45292">
        <ele>32.6</ele>
        <time>2025-01-28T10:15:20Z</time>
      </trkpt>
      <trkpt lat="48.0154" lon="-4.45307">
        <ele>32.9</ele>
        <time>2025-01-28T10:15:27Z</time>
      </trkpt>
      <trkpt lat="48.01539" lon="-4.45322">
        <ele>32.9</ele>
        <time>2025-01-28T10:15:34Z</time>
      </trkpt>
      <trkpt lat="48.0154" lon="-4.45336">
        <ele>33.1</ele>
        <time>2025-01-28T10:15:41Z</time>
      </trkpt>
      <trkpt lat="48.01539" lon="-4.4535">
        <ele>32.9</ele>
        <time>2025-01-28T10:15:48Z</time>
      </trkpt>
      <trkpt lat="48.0154" lon="-4.45366">
        <ele>33.2</ele>
        <time>2025-01-28T10:15:56Z</time>
      </trkpt>
      <trkpt lat="48.01539" lon="-4.4538">
        <ele>32.9</ele>
        <time>2025-01-28T10:16:02Z</time>
      </trkpt>
      <trkpt lat="48.01538" lon="-4.45394">
        <ele>33.8</ele>
        <time>2025-01-28T10:16:14Z</time>
      </trkpt>
      <trkpt lat="48.01539" lon="-4.45408">
        <ele>34.3</ele>
        <time>2025-01-28T10:16:22Z</time>
      </trkpt>
      <trkpt lat="48.01537" lon="-4.45423">
        <ele>34.1</ele>
        <time>2025-01-28T10:16:30Z</time>
      </trkpt>
      <trkpt lat="48.01538" lon="-4.45439">
        <ele>34.4</ele>
        <time>2025-01-28T10:16:38Z</time>
      </trkpt>
      <trkpt lat="48.01536" lon="-4.45454">
        <ele>34.7</ele>
        <time>2025-01-28T10:16:46Z</time>
      </trkpt>
      <trkpt lat="48.01537" lon="-4.45468">
        <ele>35.1</ele>
        <time>2025-01-28T10:16:53Z</time>
      </trkpt>
      <trkpt lat="48.01537" lon="-4.45482">
        <ele>35.7</ele>
        <time>2025-01-28T10:17:00Z</time>
      </trkpt>
      <trkpt lat="48.01536" lon="-4.45497">
        <ele>35.9</ele>
        <time>2025-01-28T10:17:08Z</time>
      </trkpt>
      <trkpt lat="48.01535" lon="-4.4551">
        <ele>36.6</ele>
        <time>2025-01-28T10:17:15Z</time>
      </trkpt>
      <trkpt lat="48.01535" lon="-4.45525">
        <ele>37.1</ele>
        <time>2025-01-28T10:17:23Z</time>
      </trkpt>
      <trkpt lat="48.01534" lon="-4.45539">
        <ele>37.4</ele>
        <time>2025-01-28T10:17:31Z</time>
      </trkpt>
      <trkpt lat="48.01535" lon="-4.45554">
        <ele>37.8</ele>
        <time>2025-01-28T10:17:40Z</time>
      </trkpt>
      <trkpt lat="48.01535" lon="-4.45568">
        <ele>38.4</ele>
        <time>2025-01-28T10:17:48Z</time>
      </trkpt>
      <trkpt lat="48.01533" lon="-4.45582">
        <ele>38.9</ele>
        <time>2025-01-28T10:17:56Z</time>
      </trkpt>
      <trkpt lat="48.01533" lon="-4.45596">
        <ele>39.4</ele>
        <time>2025-01-28T10:18:04Z</time>
      </trkpt>
      <trkpt lat="48.01532" lon="-4.4561">
        <ele>39.7</ele>
        <time>2025-01-28T10:18:12Z</time>
      </trkpt>
      <trkpt lat="48.01531" lon="-4.45626">
        <ele>39.8</ele>
        <time>2025-01-28T10:18:20Z</time>
      </trkpt>
      <trkpt lat="48.01531" lon="-4.4564">
        <ele>40.7</ele>
        <time>2025-01-28T10:18:29Z</time>
      </trkpt>
      <trkpt lat="48.01528" lon="-4.45653">
        <ele>41.5</ele>
        <time>2025-01-28T10:21:28Z</time>
      </trkpt>
      <trkpt lat="48.01529" lon="-4.45667">
        <ele>41.3</ele>
        <time>2025-01-28T10:24:20Z</time>
      </trkpt>
      <trkpt lat="48.01528" lon="-4.45681">
        <ele>42</ele>
        <time>2025-01-28T10:24:28Z</time>
      </trkpt>
      <trkpt lat="48.01529" lon="-4.45695">
        <ele>42.7</ele>
        <time>2025-01-28T10:24:36Z</time>
      </trkpt>
      <trkpt lat="48.01528" lon="-4.45709">
        <ele>43.6</ele>
        <time>2025-01-28T10:24:45Z</time>
      </trkpt>
      <trkpt lat="48.01528" lon="-4.45724">
        <ele>44.4</ele>
        <time>2025-01-28T10:24:53Z</time>
      </trkpt>
      <trkpt lat="48.01525" lon="-4.45737">
        <ele>45.6</ele>
        <time>2025-01-28T10:25:19Z</time>
      </trkpt>
      <trkpt lat="48.01524" lon="-4.4575">
        <ele>45.7</ele>
        <time>2025-01-28T10:25:28Z</time>
      </trkpt>
      <trkpt lat="48.01523" lon="-4.45765">
        <ele>46.2</ele>
        <time>2025-01-28T10:25:36Z</time>
      </trkpt>
      <trkpt lat="48.01523" lon="-4.4578">
        <ele>46.7</ele>
        <time>2025-01-28T10:25:44Z</time>
      </trkpt>
      <trkpt lat="48.01522" lon="-4.45795">
        <ele>47.4</ele>
        <time>2025-01-28T10:25:51Z</time>
      </trkpt>
      <trkpt lat="48.01523" lon="-4.45809">
        <ele>47.6</ele>
        <time>2025-01-28T10:25:58Z</time>
      </trkpt>
      <trkpt lat="48.01524" lon="-4.45823">
        <ele>47.6</ele>
        <time>2025-01-28T10:26:04Z</time>
      </trkpt>
      <trkpt lat="48.01523" lon="-4.45837">
        <ele>47.4</ele>
        <time>2025-01-28T10:26:11Z</time>
      </trkpt>
      <trkpt lat="48.01522" lon="-4.45851">
        <ele>47.4</ele>
        <time>2025-01-28T10:26:19Z</time>
      </trkpt>
      <trkpt lat="48.01521" lon="-4.45865">
        <ele>47.7</ele>
        <time>2025-01-28T10:26:25Z</time>
      </trkpt>
      <trkpt lat="48.01518" lon="-4.45878">
        <ele>47.4</ele>
        <time>2025-01-28T10:26:36Z</time>
      </trkpt>
      <trkpt lat="48.01518" lon="-4.45892">
        <ele>47.5</ele>
        <time>2025-01-28T10:26:44Z</time>
      </trkpt>
      <trkpt lat="48.0152" lon="-4.45907">
        <ele>47.5</ele>
        <time>2025-01-28T10:26:52Z</time>
      </trkpt>
      <trkpt lat="48.01519" lon="-4.45921">
        <ele>47.2</ele>
        <time>2025-01-28T10:26:59Z</time>
      </trkpt>
      <trkpt lat="48.01519" lon="-4.45936">
        <ele>46.3</ele>
        <time>2025-01-28T10:27:07Z</time>
      </trkpt>
      <trkpt lat="48.01517" lon="-4.4595">
        <ele>46.3</ele>
        <time>2025-01-28T10:27:14Z</time>
      </trkpt>
      <trkpt lat="48.01517" lon="-4.45964">
        <ele>45.6</ele>
        <time>2025-01-28T10:27:20Z</time>
      </trkpt>
      <trkpt lat="48.01518" lon="-4.45979">
        <ele>45.8</ele>
        <time>2025-01-28T10:27:27Z</time>
      </trkpt>
      <trkpt lat="48.01517" lon="-4.45993">
        <ele>45.9</ele>
        <time>2025-01-28T10:27:35Z</time>
      </trkpt>
      <trkpt lat="48.01516" lon="-4.46008">
        <ele>45.3</ele>
        <time>2025-01-28T10:27:43Z</time>
      </trkpt>
      <trkpt lat="48.01514" lon="-4.46022">
        <ele>45.1</ele>
        <time>2025-01-28T10:27:54Z</time>
      </trkpt>
      <trkpt lat="48.01514" lon="-4.46037">
        <ele>45.1</ele>
        <time>2025-01-28T10:28:03Z</time>
      </trkpt>
      <trkpt lat="48.01515" lon="-4.46053">
        <ele>44.9</ele>
        <time>2025-01-28T10:28:13Z</time>
      </trkpt>
      <trkpt lat="48.01511" lon="-4.46065">
        <ele>44.5</ele>
        <time>2025-01-28T10:28:23Z</time>
      </trkpt>
      <trkpt lat="48.0151" lon="-4.4608">
        <ele>44.8</ele>
        <time>2025-01-28T10:28:36Z</time>
      </trkpt>
      <trkpt lat="48.0151" lon="-4.46093">
        <ele>45</ele>
        <time>2025-01-28T10:28:43Z</time>
      </trkpt>
      <trkpt lat="48.01509" lon="-4.46108">
        <ele>45.1</ele>
        <time>2025-01-28T10:28:51Z</time>
      </trkpt>
      <trkpt lat="48.01508" lon="-4.46123">
        <ele>44.9</ele>
        <time>2025-01-28T10:28:59Z</time>
      </trkpt>
      <trkpt lat="48.01509" lon="-4.46137">
        <ele>44.7</ele>
        <time>2025-01-28T10:29:07Z</time>
      </trkpt>
      <trkpt lat="48.0151" lon="-4.4615">
        <ele>45.1</ele>
        <time>2025-01-28T10:29:15Z</time>
      </trkpt>
      <trkpt lat="48.01509" lon="-4.46165">
        <ele>45.2</ele>
        <time>2025-01-28T10:29:22Z</time>
      </trkpt>
      <trkpt lat="48.0151" lon="-4.46179">
        <ele>45.2</ele>
        <time>2025-01-28T10:29:30Z</time>
      </trkpt>
      <trkpt lat="48.01515" lon="-4.46192">
        <ele>46.1</ele>
        <time>2025-01-28T10:29:39Z</time>
      </trkpt>
      <trkpt lat="48.01524" lon="-4.46195">
        <ele>48.5</ele>
        <time>2025-01-28T10:30:43Z</time>
      </trkpt>
      <trkpt lat="48.0152" lon="-4.46207">
        <ele>48.8</ele>
        <time>2025-01-28T10:31:05Z</time>
      </trkpt>
      <trkpt lat="48.01518" lon="-4.46221">
        <ele>48.5</ele>
        <time>2025-01-28T10:31:14Z</time>
      </trkpt>
      <trkpt lat="48.01515" lon="-4.46234">
        <ele>48.9</ele>
        <time>2025-01-28T10:31:24Z</time>
      </trkpt>
      <trkpt lat="48.01513" lon="-4.46248">
        <ele>49.4</ele>
        <time>2025-01-28T10:31:34Z</time>
      </trkpt>
      <trkpt lat="48.01508" lon="-4.46261">
        <ele>48.7</ele>
        <time>2025-01-28T10:31:46Z</time>
      </trkpt>
      <trkpt lat="48.01504" lon="-4.46276">
        <ele>48</ele>
        <time>2025-01-28T10:31:55Z</time>
      </trkpt>
      <trkpt lat="48.01498" lon="-4.46285">
        <ele>49.3</ele>
        <time>2025-01-28T10:32:40Z</time>
      </trkpt>
      <trkpt lat="48.0149" lon="-4.46278">
        <ele>49.1</ele>
        <time>2025-01-28T10:32:47Z</time>
      </trkpt>
      <trkpt lat="48.01481" lon="-4.46272">
        <ele>48.5</ele>
        <time>2025-01-28T10:32:55Z</time>
      </trkpt>
      <trkpt lat="48.01472" lon="-4.46269">
        <ele>47.8</ele>
        <time>2025-01-28T10:33:04Z</time>
      </trkpt>
      <trkpt lat="48.01464" lon="-4.46264">
        <ele>46.3</ele>
        <time>2025-01-28T10:33:13Z</time>
      </trkpt>
      <trkpt lat="48.01454" lon="-4.46261">
        <ele>45.3</ele>
        <time>2025-01-28T10:33:21Z</time>
      </trkpt>
      <trkpt lat="48.01445" lon="-4.46256">
        <ele>45.4</ele>
        <time>2025-01-28T10:33:28Z</time>
      </trkpt>
      <trkpt lat="48.01435" lon="-4.46256">
        <ele>44.6</ele>
        <time>2025-01-28T10:33:38Z</time>
      </trkpt>
      <trkpt lat="48.01428" lon="-4.46263">
        <ele>44.5</ele>
        <time>2025-01-28T10:33:48Z</time>
      </trkpt>
      <trkpt lat="48.01422" lon="-4.46275">
        <ele>44.3</ele>
        <time>2025-01-28T10:34:14Z</time>
      </trkpt>
      <trkpt lat="48.01422" lon="-4.46275">
        <ele>44.3</ele>
        <time>2025-01-28T10:34:14Z</time>
      </trkpt>
      <trkpt lat="48.01414" lon="-4.46283">
        <ele>44.3</ele>
        <time>2025-01-28T10:34:39Z</time>
      </trkpt>
      <trkpt lat="48.01405" lon="-4.46289">
        <ele>43.3</ele>
        <time>2025-01-28T10:34:48Z</time>
      </trkpt>
      <trkpt lat="48.01396" lon="-4.4629">
        <ele>43.7</ele>
        <time>2025-01-28T10:34:57Z</time>
      </trkpt>
      <trkpt lat="48.01385" lon="-4.46293">
        <ele>43.9</ele>
        <time>2025-01-28T10:35:04Z</time>
      </trkpt>
      <trkpt lat="48.01375" lon="-4.46293">
        <ele>43.9</ele>
        <time>2025-01-28T10:35:11Z</time>
      </trkpt>
      <trkpt lat="48.01366" lon="-4.4629">
        <ele>43.9</ele>
        <time>2025-01-28T10:35:19Z</time>
      </trkpt>
      <trkpt lat="48.01357" lon="-4.46284">
        <ele>44.2</ele>
        <time>2025-01-28T10:35:27Z</time>
      </trkpt>
      <trkpt lat="48.01351" lon="-4.46273">
        <ele>45.6</ele>
        <time>2025-01-28T10:37:12Z</time>
      </trkpt>
      <trkpt lat="48.01343" lon="-4.46266">
        <ele>45.7</ele>
        <time>2025-01-28T10:37:29Z</time>
      </trkpt>
      <trkpt lat="48.01333" lon="-4.46266">
        <ele>45.6</ele>
        <time>2025-01-28T10:37:38Z</time>
      </trkpt>
      <trkpt lat="48.01323" lon="-4.46266">
        <ele>46.3</ele>
        <time>2025-01-28T10:37:46Z</time>
      </trkpt>
      <trkpt lat="48.01313" lon="-4.46264">
        <ele>46.9</ele>
        <time>2025-01-28T10:37:53Z</time>
      </trkpt>
      <trkpt lat="48.01305" lon="-4.46257">
        <ele>47.6</ele>
        <time>2025-01-28T10:38:00Z</time>
      </trkpt>
      <trkpt lat="48.01297" lon="-4.4625">
        <ele>48</ele>
        <time>2025-01-28T10:38:07Z</time>
      </trkpt>
      <trkpt lat="48.01288" lon="-4.46242">
        <ele>47.6</ele>
        <time>2025-01-28T10:38:13Z</time>
      </trkpt>
      <trkpt lat="48.0128" lon="-4.46236">
        <ele>47.7</ele>
        <time>2025-01-28T10:38:20Z</time>
      </trkpt>
      <trkpt lat="48.01275" lon="-4.46224">
        <ele>48.2</ele>
        <time>2025-01-28T10:38:28Z</time>
      </trkpt>
      <trkpt lat="48.01273" lon="-4.46209">
        <ele>48.4</ele>
        <time>2025-01-28T10:38:35Z</time>
      </trkpt>
      <trkpt lat="48.01271" lon="-4.46195">
        <ele>47.9</ele>
        <time>2025-01-28T10:38:43Z</time>
      </trkpt>
      <trkpt lat="48.01265" lon="-4.46182">
        <ele>47.3</ele>
        <time>2025-01-28T10:38:50Z</time>
      </trkpt>
      <trkpt lat="48.01259" lon="-4.46172">
        <ele>46.1</ele>
        <time>2025-01-28T10:38:58Z</time>
      </trkpt>
      <trkpt lat="48.01251" lon="-4.46164">
        <ele>45.6</ele>
        <time>2025-01-28T10:39:07Z</time>
      </trkpt>
      <trkpt lat="48.01243" lon="-4.46157">
        <ele>45.2</ele>
        <time>2025-01-28T10:39:14Z</time>
      </trkpt>
      <trkpt lat="48.01234" lon="-4.46151">
        <ele>44.5</ele>
        <time>2025-01-28T10:39:21Z</time>
      </trkpt>
      <trkpt lat="48.01227" lon="-4.46142">
        <ele>43.8</ele>
        <time>2025-01-28T10:39:28Z</time>
      </trkpt>
      <trkpt lat="48.01222" lon="-4.4613">
        <ele>43.1</ele>
        <time>2025-01-28T10:39:35Z</time>
      </trkpt>
      <trkpt lat="48.01217" lon="-4.46117">
        <ele>43</ele>
        <time>2025-01-28T10:39:41Z</time>
      </trkpt>
      <trkpt lat="48.01214" lon="-4.46103">
        <ele>42.9</ele>
        <time>2025-01-28T10:39:47Z</time>
      </trkpt>
      <trkpt lat="48.01212" lon="-4.46089">
        <ele>42.9</ele>
        <time>2025-01-28T10:39:54Z</time>
      </trkpt>
      <trkpt lat="48.0121" lon="-4.46075">
        <ele>43.8</ele>
        <time>2025-01-28T10:40:03Z</time>
      </trkpt>
      <trkpt lat="48.01208" lon="-4.46062">
        <ele>44</ele>
        <time>2025-01-28T10:40:13Z</time>
      </trkpt>
      <trkpt lat="48.01205" lon="-4.46049">
        <ele>44.3</ele>
        <time>2025-01-28T10:40:20Z</time>
      </trkpt>
      <trkpt lat="48.01203" lon="-4.46033">
        <ele>45.4</ele>
        <time>2025-01-28T10:40:28Z</time>
      </trkpt>
      <trkpt lat="48.01201" lon="-4.46019">
        <ele>46.1</ele>
        <time>2025-01-28T10:40:36Z</time>
      </trkpt>
      <trkpt lat="48.01198" lon="-4.46005">
        <ele>47.5</ele>
        <time>2025-01-28T10:40:44Z</time>
      </trkpt>
      <trkpt lat="48.01194" lon="-4.45993">
        <ele>48.3</ele>
        <time>2025-01-28T10:40:51Z</time>
      </trkpt>
      <trkpt lat="48.01191" lon="-4.45978">
        <ele>49.4</ele>
        <time>2025-01-28T10:40:58Z</time>
      </trkpt>
      <trkpt lat="48.01189" lon="-4.45964">
        <ele>50.6</ele>
        <time>2025-01-28T10:41:07Z</time>
      </trkpt>
      <trkpt lat="48.01187" lon="-4.45951">
        <ele>52.1</ele>
        <time>2025-01-28T10:41:15Z</time>
      </trkpt>
      <trkpt lat="48.01185" lon="-4.45936">
        <ele>53.4</ele>
        <time>2025-01-28T10:41:23Z</time>
      </trkpt>
      <trkpt lat="48.01183" lon="-4.45923">
        <ele>54.4</ele>
        <time>2025-01-28T10:41:30Z</time>
      </trkpt>
      <trkpt lat="48.01181" lon="-4.45908">
        <ele>54.9</ele>
        <time>2025-01-28T10:41:37Z</time>
      </trkpt>
      <trkpt lat="48.01177" lon="-4.45895">
        <ele>55.3</ele>
        <time>2025-01-28T10:41:45Z</time>
      </trkpt>
      <trkpt lat="48.01176" lon="-4.45882">
        <ele>56</ele>
        <time>2025-01-28T10:41:53Z</time>
      </trkpt>
      <trkpt lat="48.01176" lon="-4.45867">
        <ele>56.4</ele>
        <time>2025-01-28T10:42:02Z</time>
      </trkpt>
      <trkpt lat="48.01176" lon="-4.45852">
        <ele>56.7</ele>
        <time>2025-01-28T10:42:11Z</time>
      </trkpt>
      <trkpt lat="48.01175" lon="-4.45836">
        <ele>56.9</ele>
        <time>2025-01-28T10:42:17Z</time>
      </trkpt>
      <trkpt lat="48.01175" lon="-4.45821">
        <ele>56.9</ele>
        <time>2025-01-28T10:42:22Z</time>
      </trkpt>
      <trkpt lat="48.01173" lon="-4.45806">
        <ele>57.3</ele>
        <time>2025-01-28T10:42:28Z</time>
      </trkpt>
      <trkpt lat="48.01173" lon="-4.45791">
        <ele>57.4</ele>
        <time>2025-01-28T10:42:36Z</time>
      </trkpt>
      <trkpt lat="48.01174" lon="-4.45776">
        <ele>57.7</ele>
        <time>2025-01-28T10:42:44Z</time>
      </trkpt>
      <trkpt lat="48.01175" lon="-4.45762">
        <ele>57.7</ele>
        <time>2025-01-28T10:42:52Z</time>
      </trkpt>
      <trkpt lat="48.01175" lon="-4.45748">
        <ele>58</ele>
        <time>2025-01-28T10:42:59Z</time>
      </trkpt>
      <trkpt lat="48.01176" lon="-4.45733">
        <ele>58.2</ele>
        <time>2025-01-28T10:43:06Z</time>
      </trkpt>
      <trkpt lat="48.01176" lon="-4.45719">
        <ele>58.3</ele>
        <time>2025-01-28T10:43:14Z</time>
      </trkpt>
      <trkpt lat="48.01175" lon="-4.45706">
        <ele>58.1</ele>
        <time>2025-01-28T10:43:28Z</time>
      </trkpt>
      <trkpt lat="48.01172" lon="-4.45692">
        <ele>57.6</ele>
        <time>2025-01-28T10:43:37Z</time>
      </trkpt>
      <trkpt lat="48.01169" lon="-4.45678">
        <ele>57.4</ele>
        <time>2025-01-28T10:43:44Z</time>
      </trkpt>
      <trkpt lat="48.01168" lon="-4.45665">
        <ele>57.1</ele>
        <time>2025-01-28T10:43:52Z</time>
      </trkpt>
      <trkpt lat="48.01163" lon="-4.45652">
        <ele>58.4</ele>
        <time>2025-01-28T10:45:19Z</time>
      </trkpt>
      <trkpt lat="48.01157" lon="-4.45641">
        <ele>57.5</ele>
        <time>2025-01-28T10:45:28Z</time>
      </trkpt>
      <trkpt lat="48.01149" lon="-4.45632">
        <ele>56.7</ele>
        <time>2025-01-28T10:45:37Z</time>
      </trkpt>
      <trkpt lat="48.01142" lon="-4.45623">
        <ele>56.8</ele>
        <time>2025-01-28T10:45:44Z</time>
      </trkpt>
      <trkpt lat="48.01149" lon="-4.45613">
        <ele>56.7</ele>
        <time>2025-01-28T10:46:34Z</time>
      </trkpt>
      <trkpt lat="48.01157" lon="-4.45608">
        <ele>56.1</ele>
        <time>2025-01-28T10:46:48Z</time>
      </trkpt>
      <trkpt lat="48.01166" lon="-4.45603">
        <ele>58.2</ele>
        <time>2025-01-28T10:47:28Z</time>
      </trkpt>
      <trkpt lat="48.01175" lon="-4.45597">
        <ele>59.6</ele>
        <time>2025-01-28T10:48:47Z</time>
      </trkpt>
      <trkpt lat="48.01186" lon="-4.45594">
        <ele>60.3</ele>
        <time>2025-01-28T10:48:54Z</time>
      </trkpt>
      <trkpt lat="48.01195" lon="-4.4559">
        <ele>60.3</ele>
        <time>2025-01-28T10:49:02Z</time>
      </trkpt>
      <trkpt lat="48.01204" lon="-4.45586">
        <ele>60</ele>
        <time>2025-01-28T10:49:09Z</time>
      </trkpt>
      <trkpt lat="48.01214" lon="-4.45583">
        <ele>59.5</ele>
        <time>2025-01-28T10:49:17Z</time>
      </trkpt>
      <trkpt lat="48.01223" lon="-4.45578">
        <ele>59.9</ele>
        <time>2025-01-28T10:49:25Z</time>
      </trkpt>
      <trkpt lat="48.01233" lon="-4.45574">
        <ele>59.7</ele>
        <time>2025-01-28T10:49:32Z</time>
      </trkpt>
      <trkpt lat="48.01242" lon="-4.4557">
        <ele>59.6</ele>
        <time>2025-01-28T10:49:40Z</time>
      </trkpt>
      <trkpt lat="48.01252" lon="-4.45566">
        <ele>59.3</ele>
        <time>2025-01-28T10:49:48Z</time>
      </trkpt>
      <trkpt lat="48.01261" lon="-4.45564">
        <ele>59.4</ele>
        <time>2025-01-28T10:49:55Z</time>
      </trkpt>
      <trkpt lat="48.01271" lon="-4.45559">
        <ele>59.5</ele>
        <time>2025-01-28T10:50:02Z</time>
      </trkpt>
      <trkpt lat="48.0128" lon="-4.45555">
        <ele>59</ele>
        <time>2025-01-28T10:50:18Z</time>
      </trkpt>
      <trkpt lat="48.01289" lon="-4.45551">
        <ele>58.9</ele>
        <time>2025-01-28T10:50:35Z</time>
      </trkpt>
      <trkpt lat="48.01298" lon="-4.45547">
        <ele>59.3</ele>
        <time>2025-01-28T10:50:43Z</time>
      </trkpt>
      <trkpt lat="48.01307" lon="-4.45542">
        <ele>58.4</ele>
        <time>2025-01-28T10:50:50Z</time>
      </trkpt>
      <trkpt lat="48.01317" lon="-4.45538">
        <ele>58.5</ele>
        <time>2025-01-28T10:50:58Z</time>
      </trkpt>
      <trkpt lat="48.01325" lon="-4.45533">
        <ele>58.2</ele>
        <time>2025-01-28T10:51:05Z</time>
      </trkpt>
      <trkpt lat="48.01334" lon="-4.4553">
        <ele>57.8</ele>
        <time>2025-01-28T10:51:12Z</time>
      </trkpt>
      <trkpt lat="48.01344" lon="-4.45526">
        <ele>57.3</ele>
        <time>2025-01-28T10:51:20Z</time>
      </trkpt>
      <trkpt lat="48.01354" lon="-4.45523">
        <ele>56.8</ele>
        <time>2025-01-28T10:51:27Z</time>
      </trkpt>
      <trkpt lat="48.01363" lon="-4.45521">
        <ele>56.2</ele>
        <time>2025-01-28T10:51:34Z</time>
      </trkpt>
      <trkpt lat="48.01373" lon="-4.45517">
        <ele>55.7</ele>
        <time>2025-01-28T10:51:42Z</time>
      </trkpt>
      <trkpt lat="48.01382" lon="-4.45515">
        <ele>55.2</ele>
        <time>2025-01-28T10:51:49Z</time>
      </trkpt>
      <trkpt lat="48.01391" lon="-4.45511">
        <ele>55</ele>
        <time>2025-01-28T10:51:56Z</time>
      </trkpt>
      <trkpt lat="48.01401" lon="-4.45508">
        <ele>54.6</ele>
        <time>2025-01-28T10:52:04Z</time>
      </trkpt>
      <trkpt lat="48.0141" lon="-4.45507">
        <ele>54.4</ele>
        <time>2025-01-28T10:52:11Z</time>
      </trkpt>
      <trkpt lat="48.0142" lon="-4.45509">
        <ele>54.6</ele>
        <time>2025-01-28T10:52:18Z</time>
      </trkpt>
      <trkpt lat="48.0142" lon="-4.45509">
        <ele>54.6</ele>
        <time>2025-01-28T10:52:18Z</time>
      </trkpt>
      <trkpt lat="48.0143" lon="-4.45512">
        <ele>54.6</ele>
        <time>2025-01-28T10:52:26Z</time>
      </trkpt>
      <trkpt lat="48.0144" lon="-4.45513">
        <ele>54.4</ele>
        <time>2025-01-28T10:52:33Z</time>
      </trkpt>
      <trkpt lat="48.01449" lon="-4.45513">
        <ele>54.7</ele>
        <time>2025-01-28T10:52:48Z</time>
      </trkpt>
      <trkpt lat="48.01459" lon="-4.45514">
        <ele>54.6</ele>
        <time>2025-01-28T10:52:55Z</time>
      </trkpt>
      <trkpt lat="48.01468" lon="-4.45516">
        <ele>54.5</ele>
        <time>2025-01-28T10:53:02Z</time>
      </trkpt>
      <trkpt lat="48.01478" lon="-4.45518">
        <ele>54.4</ele>
        <time>2025-01-28T10:53:09Z</time>
      </trkpt>
      <trkpt lat="48.01488" lon="-4.4552">
        <ele>54.4</ele>
        <time>2025-01-28T10:53:16Z</time>
      </trkpt>
      <trkpt lat="48.01497" lon="-4.45521">
        <ele>54.5</ele>
        <time>2025-01-28T10:53:23Z</time>
      </trkpt>
      <trkpt lat="48.01506" lon="-4.45523">
        <ele>54.5</ele>
        <time>2025-01-28T10:53:30Z</time>
      </trkpt>
      <trkpt lat="48.01516" lon="-4.45524">
        <ele>54.7</ele>
        <time>2025-01-28T10:53:37Z</time>
      </trkpt>
      <trkpt lat="48.01526" lon="-4.45524">
        <ele>55.1</ele>
        <time>2025-01-28T10:53:45Z</time>
      </trkpt>
      <trkpt lat="48.01534" lon="-4.45519">
        <ele>55.6</ele>
        <time>2025-01-28T10:53:52Z</time>
      </trkpt>
      <trkpt lat="48.01536" lon="-4.45505">
        <ele>55.3</ele>
        <time>2025-01-28T10:54:00Z</time>
      </trkpt>
      <trkpt lat="48.01536" lon="-4.45491">
        <ele>54.8</ele>
        <time>2025-01-28T10:54:07Z</time>
      </trkpt>
      <trkpt lat="48.01536" lon="-4.45476">
        <ele>54.4</ele>
        <time>2025-01-28T10:54:15Z</time>
      </trkpt>
      <trkpt lat="48.01535" lon="-4.45463">
        <ele>54.4</ele>
        <time>2025-01-28T10:54:22Z</time>
      </trkpt>
      <trkpt lat="48.01535" lon="-4.45449">
        <ele>53.6</ele>
        <time>2025-01-28T10:54:29Z</time>
      </trkpt>
      <trkpt lat="48.01536" lon="-4.45433">
        <ele>52.9</ele>
        <time>2025-01-28T10:54:37Z</time>
      </trkpt>
      <trkpt lat="48.01536" lon="-4.4542">
        <ele>52.7</ele>
        <time>2025-01-28T10:54:44Z</time>
      </trkpt>
      <trkpt lat="48.01535" lon="-4.45406">
        <ele>52.8</ele>
        <time>2025-01-28T10:54:51Z</time>
      </trkpt>
      <trkpt lat="48.01535" lon="-4.45392">
        <ele>52.9</ele>
        <time>2025-01-28T10:54:58Z</time>
      </trkpt>
      <trkpt lat="48.01539" lon="-4.4538">
        <ele>53.2</ele>
        <time>2025-01-28T10:56:03Z</time>
      </trkpt>
      <trkpt lat="48.0154" lon="-4.45366">
        <ele>53.3</ele>
        <time>2025-01-28T10:56:12Z</time>
      </trkpt>
      <trkpt lat="48.0154" lon="-4.45351">
        <ele>53.2</ele>
        <time>2025-01-28T10:56:21Z</time>
      </trkpt>
      <trkpt lat="48.0154" lon="-4.45337">
        <ele>52.6</ele>
        <time>2025-01-28T10:56:31Z</time>
      </trkpt>
      <trkpt lat="48.01538" lon="-4.45323">
        <ele>52.8</ele>
        <time>2025-01-28T10:56:38Z</time>
      </trkpt>
      <trkpt lat="48.01539" lon="-4.45309">
        <ele>52.4</ele>
        <time>2025-01-28T10:56:46Z</time>
      </trkpt>
      <trkpt lat="48.0154" lon="-4.45294">
        <ele>52</ele>
        <time>2025-01-28T10:56:54Z</time>
      </trkpt>
      <trkpt lat="48.0154" lon="-4.45278">
        <ele>52</ele>
        <time>2025-01-28T10:57:02Z</time>
      </trkpt>
      <trkpt lat="48.0154" lon="-4.45264">
        <ele>52.1</ele>
        <time>2025-01-28T10:57:09Z</time>
      </trkpt>
      <trkpt lat="48.01539" lon="-4.4525">
        <ele>51.9</ele>
        <time>2025-01-28T10:57:17Z</time>
      </trkpt>
      <trkpt lat="48.0154" lon="-4.45236">
        <ele>51.9</ele>
        <time>2025-01-28T10:57:28Z</time>
      </trkpt>
      <trkpt lat="48.01542" lon="-4.45223">
        <ele>51.6</ele>
        <time>2025-01-28T10:57:36Z</time>
      </trkpt>
      <trkpt lat="48.01547" lon="-4.45211">
        <ele>51.4</ele>
        <time>2025-01-28T10:57:45Z</time>
      </trkpt>
      <trkpt lat="48.01556" lon="-4.45207">
        <ele>51.7</ele>
        <time>2025-01-28T10:57:53Z</time>
      </trkpt>
      <trkpt lat="48.01563" lon="-4.45197">
        <ele>51.7</ele>
        <time>2025-01-28T10:58:02Z</time>
      </trkpt>
      <trkpt lat="48.01571" lon="-4.45191">
        <ele>52.3</ele>
        <time>2025-01-28T10:58:42Z</time>
      </trkpt>
      <trkpt lat="48.0158" lon="-4.45186">
        <ele>52.1</ele>
        <time>2025-01-28T10:59:19Z</time>
      </trkpt>
      <trkpt lat="48.01587" lon="-4.45176">
        <ele>51.6</ele>
        <time>2025-01-28T10:59:27Z</time>
      </trkpt>
      <trkpt lat="48.01593" lon="-4.45165">
        <ele>51.6</ele>
        <time>2025-01-28T10:59:35Z</time>
      </trkpt>
      <trkpt lat="48.01599" lon="-4.45154">
        <ele>52.8</ele>
        <time>2025-01-28T10:59:45Z</time>
      </trkpt>
      <trkpt lat="48.01605" lon="-4.45143">
        <ele>53.3</ele>
        <time>2025-01-28T10:59:55Z</time>
      </trkpt>
      <trkpt lat="48.01611" lon="-4.45132">
        <ele>54</ele>
        <time>2025-01-28T11:00:03Z</time>
      </trkpt>
      <trkpt lat="48.01618" lon="-4.45122">
        <ele>54.6</ele>
        <time>2025-01-28T11:00:12Z</time>
      </trkpt>
      <trkpt lat="48.0162" lon="-4.45109">
        <ele>55.7</ele>
        <time>2025-01-28T11:00:26Z</time>
      </trkpt>
      <trkpt lat="48.01622" lon="-4.45095">
        <ele>55.4</ele>
        <time>2025-01-28T11:00:38Z</time>
      </trkpt>
      <trkpt lat="48.01622" lon="-4.45081">
        <ele>55.9</ele>
        <time>2025-01-28T11:00:46Z</time>
      </trkpt>
      <trkpt lat="48.01622" lon="-4.45067">
        <ele>56.5</ele>
        <time>2025-01-28T11:00:56Z</time>
      </trkpt>
      <trkpt lat="48.01623" lon="-4.45053">
        <ele>57.1</ele>
        <time>2025-01-28T11:01:07Z</time>
      </trkpt>
      <trkpt lat="48.01624" lon="-4.45039">
        <ele>56.6</ele>
        <time>2025-01-28T11:01:15Z</time>
      </trkpt>
      <trkpt lat="48.01624" lon="-4.45025">
        <ele>56.3</ele>
        <time>2025-01-28T11:01:22Z</time>
      </trkpt>
      <trkpt lat="48.01624" lon="-4.45011">
        <ele>55.9</ele>
        <time>2025-01-28T11:01:29Z</time>
      </trkpt>
      <trkpt lat="48.01625" lon="-4.44996">
        <ele>55.9</ele>
        <time>2025-01-28T11:01:37Z</time>
      </trkpt>
      <trkpt lat="48.01626" lon="-4.44982">
        <ele>55.1</ele>
        <time>2025-01-28T11:01:46Z</time>
      </trkpt>
      <trkpt lat="48.01626" lon="-4.44968">
        <ele>55</ele>
        <time>2025-01-28T11:01:54Z</time>
      </trkpt>
      <trkpt lat="48.01628" lon="-4.44954">
        <ele>54.5</ele>
        <time>2025-01-28T11:02:03Z</time>
      </trkpt>
      <trkpt lat="48.01629" lon="-4.44939">
        <ele>53.6</ele>
        <time>2025-01-28T11:02:12Z</time>
      </trkpt>
      <trkpt lat="48.01622" lon="-4.44931">
        <ele>52.4</ele>
        <time>2025-01-28T11:02:28Z</time>
      </trkpt>
      <trkpt lat="48.01612" lon="-4.44932">
        <ele>52.3</ele>
        <time>2025-01-28T11:02:40Z</time>
      </trkpt>
      <trkpt lat="48.01604" lon="-4.44937">
        <ele>52</ele>
        <time>2025-01-28T11:02:53Z</time>
      </trkpt>
      <trkpt lat="48.01595" lon="-4.44942">
        <ele>52</ele>
        <time>2025-01-28T11:03:07Z</time>
      </trkpt>
      <trkpt lat="48.0159" lon="-4.44931">
        <ele>51.6</ele>
        <time>2025-01-28T11:03:23Z</time>
      </trkpt>
      <trkpt lat="48.01587" lon="-4.44917">
        <ele>51.4</ele>
        <time>2025-01-28T11:04:05Z</time>
      </trkpt>
      <trkpt lat="48.01586" lon="-4.44903">
        <ele>50.8</ele>
        <time>2025-01-28T11:04:16Z</time>
      </trkpt>
      <trkpt lat="48.01589" lon="-4.4489">
        <ele>51.5</ele>
        <time>2025-01-28T11:04:28Z</time>
      </trkpt>
      <trkpt lat="48.01587" lon="-4.44876">
        <ele>50.8</ele>
        <time>2025-01-28T11:04:44Z</time>
      </trkpt>
      <trkpt lat="48.01586" lon="-4.44863">
        <ele>51</ele>
        <time>2025-01-28T11:05:22Z</time>
      </trkpt>
      <trkpt lat="48.01584" lon="-4.44849">
        <ele>51.3</ele>
        <time>2025-01-28T11:05:49Z</time>
      </trkpt>
      <trkpt lat="48.01581" lon="-4.44836">
        <ele>51.1</ele>
        <time>2025-01-28T11:06:05Z</time>
      </trkpt>
      <trkpt lat="48.01579" lon="-4.44822">
        <ele>51.9</ele>
        <time>2025-01-28T11:06:34Z</time>
      </trkpt>
      <trkpt lat="48.01582" lon="-4.44809">
        <ele>52.6</ele>
        <time>2025-01-28T11:06:49Z</time>
      </trkpt>
      <trkpt lat="48.0159" lon="-4.44804">
        <ele>52.9</ele>
        <time>2025-01-28T11:06:58Z</time>
      </trkpt>
      <trkpt lat="48.016" lon="-4.448">
        <ele>53.4</ele>
        <time>2025-01-28T11:07:05Z</time>
      </trkpt>
      <trkpt lat="48.0161" lon="-4.448">
        <ele>53.5</ele>
        <time>2025-01-28T11:07:15Z</time>
      </trkpt>
      <trkpt lat="48.0162" lon="-4.44798">
        <ele>54.1</ele>
        <time>2025-01-28T11:07:23Z</time>
      </trkpt>
      <trkpt lat="48.01631" lon="-4.44797">
        <ele>54</ele>
        <time>2025-01-28T11:07:33Z</time>
      </trkpt>
      <trkpt lat="48.0164" lon="-4.44794">
        <ele>53.9</ele>
        <time>2025-01-28T11:07:40Z</time>
      </trkpt>
      <trkpt lat="48.0165" lon="-4.44793">
        <ele>54.3</ele>
        <time>2025-01-28T11:07:48Z</time>
      </trkpt>
      <trkpt lat="48.01659" lon="-4.44791">
        <ele>54.2</ele>
        <time>2025-01-28T11:07:57Z</time>
      </trkpt>
      <trkpt lat="48.01669" lon="-4.44788">
        <ele>53.8</ele>
        <time>2025-01-28T11:08:05Z</time>
      </trkpt>
      <trkpt lat="48.01678" lon="-4.44787">
        <ele>53.3</ele>
        <time>2025-01-28T11:08:14Z</time>
      </trkpt>
      <trkpt lat="48.01689" lon="-4.44786">
        <ele>53.4</ele>
        <time>2025-01-28T11:08:20Z</time>
      </trkpt>
      <trkpt lat="48.01698" lon="-4.44786">
        <ele>53.8</ele>
        <time>2025-01-28T11:08:28Z</time>
      </trkpt>
      <trkpt lat="48.01708" lon="-4.44785">
        <ele>53.7</ele>
        <time>2025-01-28T11:08:37Z</time>
      </trkpt>
      <trkpt lat="48.01717" lon="-4.44784">
        <ele>54.1</ele>
        <time>2025-01-28T11:08:44Z</time>
      </trkpt>
      <trkpt lat="48.01727" lon="-4.44787">
        <ele>54.6</ele>
        <time>2025-01-28T11:08:52Z</time>
      </trkpt>
      <trkpt lat="48.01737" lon="-4.44787">
        <ele>55</ele>
        <time>2025-01-28T11:08:59Z</time>
      </trkpt>
      <trkpt lat="48.01746" lon="-4.4479">
        <ele>54.8</ele>
        <time>2025-01-28T11:09:07Z</time>
      </trkpt>
      <trkpt lat="48.01756" lon="-4.44788">
        <ele>55</ele>
        <time>2025-01-28T11:09:14Z</time>
      </trkpt>
      <trkpt lat="48.01766" lon="-4.44786">
        <ele>55.7</ele>
        <time>2025-01-28T11:09:22Z</time>
      </trkpt>
      <trkpt lat="48.01776" lon="-4.44785">
        <ele>55.4</ele>
        <time>2025-01-28T11:09:32Z</time>
      </trkpt>
      <trkpt lat="48.01786" lon="-4.44784">
        <ele>55.6</ele>
        <time>2025-01-28T11:09:43Z</time>
      </trkpt>
      <trkpt lat="48.01795" lon="-4.44787">
        <ele>55.7</ele>
        <time>2025-01-28T11:09:52Z</time>
      </trkpt>
      <trkpt lat="48.01795" lon="-4.44787">
        <ele>55.7</ele>
        <time>2025-01-28T11:09:52Z</time>
      </trkpt>
      <trkpt lat="48.01805" lon="-4.44784">
        <ele>56.2</ele>
        <time>2025-01-28T11:09:59Z</time>
      </trkpt>
      <trkpt lat="48.01815" lon="-4.44784">
        <ele>56.8</ele>
        <time>2025-01-28T11:10:06Z</time>
      </trkpt>
      <trkpt lat="48.01825" lon="-4.44783">
        <ele>56.6</ele>
        <time>2025-01-28T11:10:13Z</time>
      </trkpt>
      <trkpt lat="48.01834" lon="-4.44783">
        <ele>56.7</ele>
        <time>2025-01-28T11:10:19Z</time>
      </trkpt>
      <trkpt lat="48.01843" lon="-4.44784">
        <ele>56.9</ele>
        <time>2025-01-28T11:10:25Z</time>
      </trkpt>
      <trkpt lat="48.01853" lon="-4.44783">
        <ele>56.6</ele>
        <time>2025-01-28T11:10:32Z</time>
      </trkpt>
      <trkpt lat="48.01862" lon="-4.44784">
        <ele>57.1</ele>
        <time>2025-01-28T11:10:45Z</time>
      </trkpt>
      <trkpt lat="48.01872" lon="-4.44783">
        <ele>57.6</ele>
        <time>2025-01-28T11:11:18Z</time>
      </trkpt>
      <trkpt lat="48.01881" lon="-4.44781">
        <ele>57</ele>
        <time>2025-01-28T11:11:27Z</time>
      </trkpt>
      <trkpt lat="48.01891" lon="-4.44779">
        <ele>57.1</ele>
        <time>2025-01-28T11:11:35Z</time>
      </trkpt>
      <trkpt lat="48.019" lon="-4.44777">
        <ele>57</ele>
        <time>2025-01-28T11:11:44Z</time>
      </trkpt>
      <trkpt lat="48.01908" lon="-4.44771">
        <ele>57.4</ele>
        <time>2025-01-28T11:11:55Z</time>
      </trkpt>
      <trkpt lat="48.01911" lon="-4.44758">
        <ele>56.9</ele>
        <time>2025-01-28T11:12:15Z</time>
      </trkpt>
      <trkpt lat="48.01912" lon="-4.44743">
        <ele>57.5</ele>
        <time>2025-01-28T11:12:25Z</time>
      </trkpt>
      <trkpt lat="48.01911" lon="-4.44729">
        <ele>57.9</ele>
        <time>2025-01-28T11:12:33Z</time>
      </trkpt>
      <trkpt lat="48.01911" lon="-4.44713">
        <ele>59.3</ele>
        <time>2025-01-28T11:12:41Z</time>
      </trkpt>
      <trkpt lat="48.01912" lon="-4.447">
        <ele>59.5</ele>
        <time>2025-01-28T11:12:48Z</time>
      </trkpt>
      <trkpt lat="48.01913" lon="-4.44685">
        <ele>59.5</ele>
        <time>2025-01-28T11:12:56Z</time>
      </trkpt>
      <trkpt lat="48.01914" lon="-4.44671">
        <ele>59.2</ele>
        <time>2025-01-28T11:13:04Z</time>
      </trkpt>
      <trkpt lat="48.01916" lon="-4.44656">
        <ele>58.9</ele>
        <time>2025-01-28T11:13:12Z</time>
      </trkpt>
      <trkpt lat="48.01917" lon="-4.44642">
        <ele>58.5</ele>
        <time>2025-01-28T11:13:19Z</time>
      </trkpt>
      <trkpt lat="48.01917" lon="-4.44627">
        <ele>58.6</ele>
        <time>2025-01-28T11:13:27Z</time>
      </trkpt>
      <trkpt lat="48.01921" lon="-4.44614">
        <ele>58.7</ele>
        <time>2025-01-28T11:13:35Z</time>
      </trkpt>
      <trkpt lat="48.01925" lon="-4.446">
        <ele>58.4</ele>
        <time>2025-01-28T11:13:42Z</time>
      </trkpt>
      <trkpt lat="48.01928" lon="-4.44587">
        <ele>58.2</ele>
        <time>2025-01-28T11:13:48Z</time>
      </trkpt>
      <trkpt lat="48.01929" lon="-4.44573">
        <ele>58.2</ele>
        <time>2025-01-28T11:13:55Z</time>
      </trkpt>
      <trkpt lat="48.01933" lon="-4.44559">
        <ele>58</ele>
        <time>2025-01-28T11:14:02Z</time>
      </trkpt>
      <trkpt lat="48.01938" lon="-4.44548">
        <ele>58</ele>
        <time>2025-01-28T11:14:08Z</time>
      </trkpt>
      <trkpt lat="48.01948" lon="-4.44549">
        <ele>57.3</ele>
        <time>2025-01-28T11:14:15Z</time>
      </trkpt>
      <trkpt lat="48.01958" lon="-4.44549">
        <ele>57.3</ele>
        <time>2025-01-28T11:14:21Z</time>
      </trkpt>
      <trkpt lat="48.01967" lon="-4.44551">
        <ele>57.8</ele>
        <time>2025-01-28T11:14:28Z</time>
      </trkpt>
      <trkpt lat="48.01976" lon="-4.44555">
        <ele>57.3</ele>
        <time>2025-01-28T11:14:36Z</time>
      </trkpt>
      <trkpt lat="48.01985" lon="-4.44558">
        <ele>56.7</ele>
        <time>2025-01-28T11:14:44Z</time>
      </trkpt>
      <trkpt lat="48.01994" lon="-4.44559">
        <ele>56.7</ele>
        <time>2025-01-28T11:14:50Z</time>
      </trkpt>
      <trkpt lat="48.02003" lon="-4.4456">
        <ele>56.4</ele>
        <time>2025-01-28T11:14:57Z</time>
      </trkpt>
      <trkpt lat="48.02013" lon="-4.44564">
        <ele>56.1</ele>
        <time>2025-01-28T11:15:05Z</time>
      </trkpt>
      <trkpt lat="48.02022" lon="-4.44569">
        <ele>55.8</ele>
        <time>2025-01-28T11:15:13Z</time>
      </trkpt>
      <trkpt lat="48.02032" lon="-4.44576">
        <ele>55.5</ele>
        <time>2025-01-28T11:15:22Z</time>
      </trkpt>
      <trkpt lat="48.02042" lon="-4.44579">
        <ele>55</ele>
        <time>2025-01-28T11:15:29Z</time>
      </trkpt>
      <trkpt lat="48.0205" lon="-4.44587">
        <ele>54.8</ele>
        <time>2025-01-28T11:15:38Z</time>
      </trkpt>
      <trkpt lat="48.02059" lon="-4.44591">
        <ele>55.3</ele>
        <time>2025-01-28T11:15:44Z</time>
      </trkpt>
      <trkpt lat="48.02068" lon="-4.44595">
        <ele>55.2</ele>
        <time>2025-01-28T11:15:50Z</time>
      </trkpt>
      <trkpt lat="48.02077" lon="-4.44601">
        <ele>54.9</ele>
        <time>2025-01-28T11:15:57Z</time>
      </trkpt>
      <trkpt lat="48.02087" lon="-4.44608">
        <ele>54.3</ele>
        <time>2025-01-28T11:16:06Z</time>
      </trkpt>
      <trkpt lat="48.02096" lon="-4.44615">
        <ele>54.2</ele>
        <time>2025-01-28T11:16:13Z</time>
      </trkpt>
      <trkpt lat="48.02105" lon="-4.44622">
        <ele>54.7</ele>
        <time>2025-01-28T11:16:22Z</time>
      </trkpt>
      <trkpt lat="48.02113" lon="-4.44629">
        <ele>54.2</ele>
        <time>2025-01-28T11:16:31Z</time>
      </trkpt>
      <trkpt lat="48.02121" lon="-4.44634">
        <ele>53.7</ele>
        <time>2025-01-28T11:16:40Z</time>
      </trkpt>
      <trkpt lat="48.0213" lon="-4.4464">
        <ele>54.3</ele>
        <time>2025-01-28T11:16:50Z</time>
      </trkpt>
      <trkpt lat="48.02139" lon="-4.44644">
        <ele>53.9</ele>
        <time>2025-01-28T11:16:58Z</time>
      </trkpt>
      <trkpt lat="48.02148" lon="-4.44649">
        <ele>53.9</ele>
        <time>2025-01-28T11:17:06Z</time>
      </trkpt>
      <trkpt lat="48.02158" lon="-4.44651">
        <ele>54.1</ele>
        <time>2025-01-28T11:17:13Z</time>
      </trkpt>
      <trkpt lat="48.02167" lon="-4.44654">
        <ele>53.7</ele>
        <time>2025-01-28T11:17:19Z</time>
      </trkpt>
      <trkpt lat="48.02177" lon="-4.44656">
        <ele>53.1</ele>
        <time>2025-01-28T11:17:26Z</time>
      </trkpt>
      <trkpt lat="48.02187" lon="-4.4466">
        <ele>53.6</ele>
        <time>2025-01-28T11:17:36Z</time>
      </trkpt>
      <trkpt lat="48.02196" lon="-4.44664">
        <ele>52.9</ele>
        <time>2025-01-28T11:17:45Z</time>
      </trkpt>
      <trkpt lat="48.02205" lon="-4.44666">
        <ele>52</ele>
        <time>2025-01-28T11:17:53Z</time>
      </trkpt>
      <trkpt lat="48.02216" lon="-4.44668">
        <ele>51.3</ele>
        <time>2025-01-28T11:18:00Z</time>
      </trkpt>
      <trkpt lat="48.02227" lon="-4.44669">
        <ele>50.5</ele>
        <time>2025-01-28T11:18:06Z</time>
      </trkpt>
      <trkpt lat="48.02237" lon="-4.44672">
        <ele>52.1</ele>
        <time>2025-01-28T11:18:14Z</time>
      </trkpt>
      <trkpt lat="48.02246" lon="-4.44674">
        <ele>52.3</ele>
        <time>2025-01-28T11:18:22Z</time>
      </trkpt>
      <trkpt lat="48.02255" lon="-4.44665">
        <ele>52.5</ele>
        <time>2025-01-28T11:18:29Z</time>
      </trkpt>
      <trkpt lat="48.0226" lon="-4.44653">
        <ele>52.5</ele>
        <time>2025-01-28T11:18:35Z</time>
      </trkpt>
      <trkpt lat="48.02265" lon="-4.4464">
        <ele>52.5</ele>
        <time>2025-01-28T11:18:42Z</time>
      </trkpt>
      <trkpt lat="48.0227" lon="-4.44626">
        <ele>53.2</ele>
        <time>2025-01-28T11:18:50Z</time>
      </trkpt>
      <trkpt lat="48.02274" lon="-4.44615">
        <ele>53</ele>
        <time>2025-01-28T11:18:56Z</time>
      </trkpt>
      <trkpt lat="48.02276" lon="-4.44601">
        <ele>52.6</ele>
        <time>2025-01-28T11:19:02Z</time>
      </trkpt>
      <trkpt lat="48.0228" lon="-4.44589">
        <ele>52.8</ele>
        <time>2025-01-28T11:19:09Z</time>
      </trkpt>
      <trkpt lat="48.02283" lon="-4.44575">
        <ele>53</ele>
        <time>2025-01-28T11:19:14Z</time>
      </trkpt>
      <trkpt lat="48.02287" lon="-4.44562">
        <ele>53.1</ele>
        <time>2025-01-28T11:19:20Z</time>
      </trkpt>
      <trkpt lat="48.02291" lon="-4.4455">
        <ele>52.9</ele>
        <time>2025-01-28T11:19:26Z</time>
      </trkpt>
      <trkpt lat="48.02296" lon="-4.44537">
        <ele>53</ele>
        <time>2025-01-28T11:19:34Z</time>
      </trkpt>
      <trkpt lat="48.023" lon="-4.44525">
        <ele>52.3</ele>
        <time>2025-01-28T11:19:41Z</time>
      </trkpt>
      <trkpt lat="48.02304" lon="-4.44512">
        <ele>53.2</ele>
        <time>2025-01-28T11:19:48Z</time>
      </trkpt>
      <trkpt lat="48.02307" lon="-4.44499">
        <ele>52.9</ele>
        <time>2025-01-28T11:19:55Z</time>
      </trkpt>
      <trkpt lat="48.02311" lon="-4.44487">
        <ele>52.2</ele>
        <time>2025-01-28T11:20:03Z</time>
      </trkpt>
      <trkpt lat="48.02314" lon="-4.44473">
        <ele>52.2</ele>
        <time>2025-01-28T11:20:10Z</time>
      </trkpt>
      <trkpt lat="48.02317" lon="-4.44459">
        <ele>51.9</ele>
        <time>2025-01-28T11:20:16Z</time>
      </trkpt>
      <trkpt lat="48.02322" lon="-4.44446">
        <ele>52.6</ele>
        <time>2025-01-28T11:20:24Z</time>
      </trkpt>
      <trkpt lat="48.02327" lon="-4.44433">
        <ele>52.4</ele>
        <time>2025-01-28T11:20:31Z</time>
      </trkpt>
      <trkpt lat="48.02331" lon="-4.44418">
        <ele>52</ele>
        <time>2025-01-28T11:20:38Z</time>
      </trkpt>
      <trkpt lat="48.02334" lon="-4.44405">
        <ele>52.3</ele>
        <time>2025-01-28T11:20:45Z</time>
      </trkpt>
      <trkpt lat="48.02339" lon="-4.44393">
        <ele>52.6</ele>
        <time>2025-01-28T11:20:52Z</time>
      </trkpt>
      <trkpt lat="48.02345" lon="-4.44382">
        <ele>53.9</ele>
        <time>2025-01-28T11:21:43Z</time>
      </trkpt>
      <trkpt lat="48.02349" lon="-4.4437">
        <ele>52.5</ele>
        <time>2025-01-28T11:21:52Z</time>
      </trkpt>
      <trkpt lat="48.02353" lon="-4.44358">
        <ele>52.5</ele>
        <time>2025-01-28T11:22:01Z</time>
      </trkpt>
      <trkpt lat="48.0236" lon="-4.44348">
        <ele>53.8</ele>
        <time>2025-01-28T11:22:10Z</time>
      </trkpt>
      <trkpt lat="48.02365" lon="-4.44336">
        <ele>52.9</ele>
        <time>2025-01-28T11:22:19Z</time>
      </trkpt>
      <trkpt lat="48.02373" lon="-4.44327">
        <ele>53.7</ele>
        <time>2025-01-28T11:22:28Z</time>
      </trkpt>
      <trkpt lat="48.0238" lon="-4.44318">
        <ele>54.1</ele>
        <time>2025-01-28T11:22:41Z</time>
      </trkpt>
      <trkpt lat="48.02385" lon="-4.44307">
        <ele>53.3</ele>
        <time>2025-01-28T11:23:20Z</time>
      </trkpt>
      <trkpt lat="48.02393" lon="-4.44299">
        <ele>54.3</ele>
        <time>2025-01-28T11:23:28Z</time>
      </trkpt>
      <trkpt lat="48.02401" lon="-4.44291">
        <ele>53.8</ele>
        <time>2025-01-28T11:23:36Z</time>
      </trkpt>
      <trkpt lat="48.02409" lon="-4.44282">
        <ele>54.4</ele>
        <time>2025-01-28T11:23:44Z</time>
      </trkpt>
      <trkpt lat="48.02409" lon="-4.44282">
        <ele>54.4</ele>
        <time>2025-01-28T11:23:44Z</time>
      </trkpt>
      <trkpt lat="48.02415" lon="-4.44273">
        <ele>55.1</ele>
        <time>2025-01-28T11:23:53Z</time>
      </trkpt>
      <trkpt lat="48.02422" lon="-4.44262">
        <ele>55.3</ele>
        <time>2025-01-28T11:24:02Z</time>
      </trkpt>
      <trkpt lat="48.02432" lon="-4.44258">
        <ele>55.4</ele>
        <time>2025-01-28T11:24:11Z</time>
      </trkpt>
      <trkpt lat="48.02439" lon="-4.44249">
        <ele>55.1</ele>
        <time>2025-01-28T11:24:18Z</time>
      </trkpt>
      <trkpt lat="48.02444" lon="-4.44237">
        <ele>54.6</ele>
        <time>2025-01-28T11:24:26Z</time>
      </trkpt>
      <trkpt lat="48.02451" lon="-4.44228">
        <ele>55</ele>
        <time>2025-01-28T11:24:34Z</time>
      </trkpt>
      <trkpt lat="48.0246" lon="-4.44228">
        <ele>54.7</ele>
        <time>2025-01-28T11:24:55Z</time>
      </trkpt>
      <trkpt lat="48.02469" lon="-4.44233">
        <ele>55</ele>
        <time>2025-01-28T11:25:07Z</time>
      </trkpt>
      <trkpt lat="48.02478" lon="-4.44238">
        <ele>56.1</ele>
        <time>2025-01-28T11:25:19Z</time>
      </trkpt>
      <trkpt lat="48.02488" lon="-4.4424">
        <ele>55.9</ele>
        <time>2025-01-28T11:25:28Z</time>
      </trkpt>
      <trkpt lat="48.02498" lon="-4.44242">
        <ele>55.6</ele>
        <time>2025-01-28T11:25:37Z</time>
      </trkpt>
      <trkpt lat="48.02507" lon="-4.44245">
        <ele>56.1</ele>
        <time>2025-01-28T11:25:45Z</time>
      </trkpt>
      <trkpt lat="48.02517" lon="-4.44247">
        <ele>56.2</ele>
        <time>2025-01-28T11:25:52Z</time>
      </trkpt>
      <trkpt lat="48.02526" lon="-4.4425">
        <ele>56.3</ele>
        <time>2025-01-28T11:26:00Z</time>
      </trkpt>
      <trkpt lat="48.02535" lon="-4.44254">
        <ele>57</ele>
        <time>2025-01-28T11:26:08Z</time>
      </trkpt>
      <trkpt lat="48.02544" lon="-4.44256">
        <ele>57.6</ele>
        <time>2025-01-28T11:26:16Z</time>
      </trkpt>
      <trkpt lat="48.02554" lon="-4.44259">
        <ele>57.4</ele>
        <time>2025-01-28T11:26:25Z</time>
      </trkpt>
      <trkpt lat="48.02563" lon="-4.4426">
        <ele>58.2</ele>
        <time>2025-01-28T11:26:39Z</time>
      </trkpt>
      <trkpt lat="48.02573" lon="-4.44263">
        <ele>58.4</ele>
        <time>2025-01-28T11:26:47Z</time>
      </trkpt>
      <trkpt lat="48.02578" lon="-4.44263">
        <ele>59.5</ele>
        <time>2025-01-28T11:29:40Z</time>
      </trkpt>
      <trkpt lat="48.02579" lon="-4.44263">
        <ele>59.6</ele>
        <time>2025-01-28T11:29:50Z</time>
      </trkpt>
      <trkpt lat="48.02579" lon="-4.44263">
        <ele>59.6</ele>
        <time>2025-01-28T11:29:51Z</time>
      </trkpt>
      <trkpt lat="48.02588" lon="-4.44262">
        <ele>60</ele>
        <time>2025-01-28T11:30:26Z</time>
      </trkpt>
      <trkpt lat="48.02597" lon="-4.4426">
        <ele>59.8</ele>
        <time>2025-01-28T11:30:35Z</time>
      </trkpt>
      <trkpt lat="48.02607" lon="-4.44256">
        <ele>60.3</ele>
        <time>2025-01-28T11:30:44Z</time>
      </trkpt>
      <trkpt lat="48.02614" lon="-4.44249">
        <ele>60.7</ele>
        <time>2025-01-28T11:31:50Z</time>
      </trkpt>
      <trkpt lat="48.02624" lon="-4.4424">
        <ele>60.5</ele>
        <time>2025-01-28T11:31:57Z</time>
      </trkpt>
      <trkpt lat="48.02631" lon="-4.4423">
        <ele>61.3</ele>
        <time>2025-01-28T11:32:04Z</time>
      </trkpt>
      <trkpt lat="48.0264" lon="-4.44225">
        <ele>61.9</ele>
        <time>2025-01-28T11:32:09Z</time>
      </trkpt>
      <trkpt lat="48.02646" lon="-4.44213">
        <ele>62.4</ele>
        <time>2025-01-28T11:32:19Z</time>
      </trkpt>
      <trkpt lat="48.02651" lon="-4.442">
        <ele>62.5</ele>
        <time>2025-01-28T11:32:29Z</time>
      </trkpt>
      <trkpt lat="48.02651" lon="-4.44186">
        <ele>62.9</ele>
        <time>2025-01-28T11:33:32Z</time>
      </trkpt>
      <trkpt lat="48.02657" lon="-4.44175">
        <ele>62.4</ele>
        <time>2025-01-28T11:33:38Z</time>
      </trkpt>
      <trkpt lat="48.02663" lon="-4.44164">
        <ele>62.5</ele>
        <time>2025-01-28T11:33:46Z</time>
      </trkpt>
      <trkpt lat="48.02669" lon="-4.44153">
        <ele>63.3</ele>
        <time>2025-01-28T11:33:55Z</time>
      </trkpt>
      <trkpt lat="48.02675" lon="-4.44142">
        <ele>63.9</ele>
        <time>2025-01-28T11:34:02Z</time>
      </trkpt>
      <trkpt lat="48.02683" lon="-4.44134">
        <ele>64.9</ele>
        <time>2025-01-28T11:34:10Z</time>
      </trkpt>
      <trkpt lat="48.02691" lon="-4.44125">
        <ele>65.3</ele>
        <time>2025-01-28T11:34:19Z</time>
      </trkpt>
      <trkpt lat="48.02699" lon="-4.44117">
        <ele>65.4</ele>
        <time>2025-01-28T11:34:29Z</time>
      </trkpt>
      <trkpt lat="48.02706" lon="-4.44109">
        <ele>64.9</ele>
        <time>2025-01-28T11:35:45Z</time>
      </trkpt>
      <trkpt lat="48.02716" lon="-4.44105">
        <ele>65.6</ele>
        <time>2025-01-28T11:36:01Z</time>
      </trkpt>
      <trkpt lat="48.02725" lon="-4.44101">
        <ele>65.9</ele>
        <time>2025-01-28T11:36:10Z</time>
      </trkpt>
      <trkpt lat="48.02734" lon="-4.44095">
        <ele>66.4</ele>
        <time>2025-01-28T11:36:28Z</time>
      </trkpt>
      <trkpt lat="48.02742" lon="-4.4409">
        <ele>66.3</ele>
        <time>2025-01-28T11:36:49Z</time>
      </trkpt>
      <trkpt lat="48.02751" lon="-4.44086">
        <ele>67.2</ele>
        <time>2025-01-28T11:36:59Z</time>
      </trkpt>
      <trkpt lat="48.0276" lon="-4.44082">
        <ele>67.1</ele>
        <time>2025-01-28T11:37:08Z</time>
      </trkpt>
      <trkpt lat="48.0277" lon="-4.44079">
        <ele>66.6</ele>
        <time>2025-01-28T11:37:18Z</time>
      </trkpt>
      <trkpt lat="48.02779" lon="-4.44073">
        <ele>66.1</ele>
        <time>2025-01-28T11:37:24Z</time>
      </trkpt>
      <trkpt lat="48.02788" lon="-4.44069">
        <ele>65.7</ele>
        <time>2025-01-28T11:37:31Z</time>
      </trkpt>
      <trkpt lat="48.02797" lon="-4.44067">
        <ele>65.8</ele>
        <time>2025-01-28T11:37:38Z</time>
      </trkpt>
      <trkpt lat="48.02807" lon="-4.44063">
        <ele>65.9</ele>
        <time>2025-01-28T11:37:47Z</time>
      </trkpt>
      <trkpt lat="48.02816" lon="-4.44061">
        <ele>66.4</ele>
        <time>2025-01-28T11:37:54Z</time>
      </trkpt>
      <trkpt lat="48.02825" lon="-4.44057">
        <ele>66.6</ele>
        <time>2025-01-28T11:38:03Z</time>
      </trkpt>
      <trkpt lat="48.02835" lon="-4.44055">
        <ele>67.3</ele>
        <time>2025-01-28T11:38:17Z</time>
      </trkpt>
      <trkpt lat="48.02845" lon="-4.44053">
        <ele>67.6</ele>
        <time>2025-01-28T11:38:25Z</time>
      </trkpt>
      <trkpt lat="48.02854" lon="-4.44051">
        <ele>66.8</ele>
        <time>2025-01-28T11:38:34Z</time>
      </trkpt>
      <trkpt lat="48.02864" lon="-4.44052">
        <ele>66.4</ele>
        <time>2025-01-28T11:38:43Z</time>
      </trkpt>
      <trkpt lat="48.02873" lon="-4.44049">
        <ele>66.2</ele>
        <time>2025-01-28T11:38:52Z</time>
      </trkpt>
      <trkpt lat="48.02884" lon="-4.44049">
        <ele>65.5</ele>
        <time>2025-01-28T11:39:00Z</time>
      </trkpt>
      <trkpt lat="48.02891" lon="-4.4404">
        <ele>65.2</ele>
        <time>2025-01-28T11:39:16Z</time>
      </trkpt>
      <trkpt lat="48.02897" lon="-4.4403">
        <ele>64.8</ele>
        <time>2025-01-28T11:39:26Z</time>
      </trkpt>
      <trkpt lat="48.02907" lon="-4.4403">
        <ele>64.2</ele>
        <time>2025-01-28T11:39:34Z</time>
      </trkpt>
      <trkpt lat="48.02916" lon="-4.44034">
        <ele>63.9</ele>
        <time>2025-01-28T11:39:42Z</time>
      </trkpt>
      <trkpt lat="48.02924" lon="-4.44039">
        <ele>62.7</ele>
        <time>2025-01-28T11:39:52Z</time>
      </trkpt>
      <trkpt lat="48.02934" lon="-4.44042">
        <ele>63.2</ele>
        <time>2025-01-28T11:39:59Z</time>
      </trkpt>
      <trkpt lat="48.02944" lon="-4.44044">
        <ele>62.4</ele>
        <time>2025-01-28T11:40:07Z</time>
      </trkpt>
      <trkpt lat="48.02953" lon="-4.44046">
        <ele>61.5</ele>
        <time>2025-01-28T11:40:16Z</time>
      </trkpt>
      <trkpt lat="48.02962" lon="-4.44046">
        <ele>59.9</ele>
        <time>2025-01-28T11:40:22Z</time>
      </trkpt>
      <trkpt lat="48.02972" lon="-4.44048">
        <ele>59.1</ele>
        <time>2025-01-28T11:40:30Z</time>
      </trkpt>
      <trkpt lat="48.02981" lon="-4.44046">
        <ele>59.4</ele>
        <time>2025-01-28T11:40:47Z</time>
      </trkpt>
      <trkpt lat="48.02988" lon="-4.44037">
        <ele>58.6</ele>
        <time>2025-01-28T11:40:59Z</time>
      </trkpt>
      <trkpt lat="48.0299" lon="-4.44023">
        <ele>59.3</ele>
        <time>2025-01-28T11:41:21Z</time>
      </trkpt>
      <trkpt lat="48.0299" lon="-4.44008">
        <ele>59.6</ele>
        <time>2025-01-28T11:41:30Z</time>
      </trkpt>
      <trkpt lat="48.02991" lon="-4.43994">
        <ele>60</ele>
        <time>2025-01-28T11:41:39Z</time>
      </trkpt>
      <trkpt lat="48.0299" lon="-4.43979">
        <ele>60</ele>
        <time>2025-01-28T11:41:47Z</time>
      </trkpt>
      <trkpt lat="48.02991" lon="-4.43965">
        <ele>60.3</ele>
        <time>2025-01-28T11:41:54Z</time>
      </trkpt>
      <trkpt lat="48.02994" lon="-4.43951">
        <ele>60.7</ele>
        <time>2025-01-28T11:42:01Z</time>
      </trkpt>
      <trkpt lat="48.02996" lon="-4.43937">
        <ele>61.1</ele>
        <time>2025-01-28T11:42:08Z</time>
      </trkpt>
      <trkpt lat="48.02997" lon="-4.43922">
        <ele>61.3</ele>
        <time>2025-01-28T11:42:15Z</time>
      </trkpt>
      <trkpt lat="48.02996" lon="-4.43908">
        <ele>61.4</ele>
        <time>2025-01-28T11:42:23Z</time>
      </trkpt>
      <trkpt lat="48.02992" lon="-4.43896">
        <ele>61.8</ele>
        <time>2025-01-28T11:42:35Z</time>
      </trkpt>
      <trkpt lat="48.02994" lon="-4.43882">
        <ele>61.3</ele>
        <time>2025-01-28T11:42:46Z</time>
      </trkpt>
      <trkpt lat="48.0299" lon="-4.43868">
        <ele>61.8</ele>
        <time>2025-01-28T11:42:54Z</time>
      </trkpt>
      <trkpt lat="48.02988" lon="-4.43854">
        <ele>61.7</ele>
        <time>2025-01-28T11:43:02Z</time>
      </trkpt>
      <trkpt lat="48.02985" lon="-4.43841">
        <ele>61.6</ele>
        <time>2025-01-28T11:43:09Z</time>
      </trkpt>
      <trkpt lat="48.02982" lon="-4.43828">
        <ele>62.2</ele>
        <time>2025-01-28T11:43:17Z</time>
      </trkpt>
      <trkpt lat="48.02979" lon="-4.43813">
        <ele>62.4</ele>
        <time>2025-01-28T11:43:24Z</time>
      </trkpt>
      <trkpt lat="48.02977" lon="-4.43799">
        <ele>62.1</ele>
        <time>2025-01-28T11:43:31Z</time>
      </trkpt>
      <trkpt lat="48.02972" lon="-4.43785">
        <ele>61.9</ele>
        <time>2025-01-28T11:43:38Z</time>
      </trkpt>
      <trkpt lat="48.02968" lon="-4.43771">
        <ele>61.8</ele>
        <time>2025-01-28T11:43:45Z</time>
      </trkpt>
      <trkpt lat="48.02966" lon="-4.43757">
        <ele>61.8</ele>
        <time>2025-01-28T11:43:52Z</time>
      </trkpt>
      <trkpt lat="48.02962" lon="-4.43745">
        <ele>61.7</ele>
        <time>2025-01-28T11:43:58Z</time>
      </trkpt>
      <trkpt lat="48.02958" lon="-4.43731">
        <ele>61.3</ele>
        <time>2025-01-28T11:44:05Z</time>
      </trkpt>
      <trkpt lat="48.02954" lon="-4.43718">
        <ele>61.5</ele>
        <time>2025-01-28T11:44:12Z</time>
      </trkpt>
      <trkpt lat="48.0295" lon="-4.43703">
        <ele>61.8</ele>
        <time>2025-01-28T11:44:19Z</time>
      </trkpt>
      <trkpt lat="48.02947" lon="-4.4369">
        <ele>61.3</ele>
        <time>2025-01-28T11:44:26Z</time>
      </trkpt>
      <trkpt lat="48.02944" lon="-4.43676">
        <ele>60.9</ele>
        <time>2025-01-28T11:44:33Z</time>
      </trkpt>
      <trkpt lat="48.0294" lon="-4.43662">
        <ele>61.1</ele>
        <time>2025-01-28T11:44:40Z</time>
      </trkpt>
      <trkpt lat="48.02936" lon="-4.43648">
        <ele>61.6</ele>
        <time>2025-01-28T11:44:47Z</time>
      </trkpt>
      <trkpt lat="48.02931" lon="-4.43636">
        <ele>62.2</ele>
        <time>2025-01-28T11:44:54Z</time>
      </trkpt>
      <trkpt lat="48.02928" lon="-4.43623">
        <ele>61.9</ele>
        <time>2025-01-28T11:45:01Z</time>
      </trkpt>
      <trkpt lat="48.02925" lon="-4.43609">
        <ele>62.3</ele>
        <time>2025-01-28T11:45:09Z</time>
      </trkpt>
      <trkpt lat="48.02923" lon="-4.43596">
        <ele>61.2</ele>
        <time>2025-01-28T11:45:18Z</time>
      </trkpt>
      <trkpt lat="48.02929" lon="-4.43586">
        <ele>60.3</ele>
        <time>2025-01-28T11:45:26Z</time>
      </trkpt>
      <trkpt lat="48.02939" lon="-4.43585">
        <ele>59.5</ele>
        <time>2025-01-28T11:45:33Z</time>
      </trkpt>
      <trkpt lat="48.02949" lon="-4.43585">
        <ele>58.6</ele>
        <time>2025-01-28T11:45:40Z</time>
      </trkpt>
      <trkpt lat="48.02958" lon="-4.43587">
        <ele>58</ele>
        <time>2025-01-28T11:45:47Z</time>
      </trkpt>
      <trkpt lat="48.02967" lon="-4.43592">
        <ele>57.8</ele>
        <time>2025-01-28T11:45:54Z</time>
      </trkpt>
      <trkpt lat="48.02976" lon="-4.43591">
        <ele>57</ele>
        <time>2025-01-28T11:46:04Z</time>
      </trkpt>
      <trkpt lat="48.02985" lon="-4.4359">
        <ele>57.7</ele>
        <time>2025-01-28T11:46:16Z</time>
      </trkpt>
      <trkpt lat="48.02994" lon="-4.43583">
        <ele>55.1</ele>
        <time>2025-01-28T11:46:33Z</time>
      </trkpt>
      <trkpt lat="48.03004" lon="-4.4358">
        <ele>54.6</ele>
        <time>2025-01-28T11:46:40Z</time>
      </trkpt>
      <trkpt lat="48.03013" lon="-4.43581">
        <ele>53.9</ele>
        <time>2025-01-28T11:46:48Z</time>
      </trkpt>
      <trkpt lat="48.03023" lon="-4.43581">
        <ele>53.3</ele>
        <time>2025-01-28T11:46:55Z</time>
      </trkpt>
      <trkpt lat="48.03032" lon="-4.43579">
        <ele>52</ele>
        <time>2025-01-28T11:47:03Z</time>
      </trkpt>
      <trkpt lat="48.03041" lon="-4.43573">
        <ele>50.9</ele>
        <time>2025-01-28T11:47:12Z</time>
      </trkpt>
      <trkpt lat="48.0305" lon="-4.43577">
        <ele>50.4</ele>
        <time>2025-01-28T11:47:41Z</time>
      </trkpt>
      <trkpt lat="48.03059" lon="-4.43579">
        <ele>50.6</ele>
        <time>2025-01-28T11:47:51Z</time>
      </trkpt>
      <trkpt lat="48.03069" lon="-4.4358">
        <ele>50.2</ele>
        <time>2025-01-28T11:47:59Z</time>
      </trkpt>
      <trkpt lat="48.03079" lon="-4.43582">
        <ele>49.2</ele>
        <time>2025-01-28T11:48:07Z</time>
      </trkpt>
      <trkpt lat="48.03089" lon="-4.43581">
        <ele>49</ele>
        <time>2025-01-28T11:48:14Z</time>
      </trkpt>
      <trkpt lat="48.03098" lon="-4.43582">
        <ele>47.6</ele>
        <time>2025-01-28T11:48:22Z</time>
      </trkpt>
      <trkpt lat="48.03107" lon="-4.43583">
        <ele>47.3</ele>
        <time>2025-01-28T11:48:30Z</time>
      </trkpt>
      <trkpt lat="48.03117" lon="-4.43581">
        <ele>47.7</ele>
        <time>2025-01-28T11:48:40Z</time>
      </trkpt>
      <trkpt lat="48.03127" lon="-4.43579">
        <ele>46.6</ele>
        <time>2025-01-28T11:49:13Z</time>
      </trkpt>
      <trkpt lat="48.03137" lon="-4.43576">
        <ele>45.6</ele>
        <time>2025-01-28T11:49:21Z</time>
      </trkpt>
      <trkpt lat="48.03146" lon="-4.43576">
        <ele>46.4</ele>
        <time>2025-01-28T11:49:40Z</time>
      </trkpt>
      <trkpt lat="48.03155" lon="-4.43578">
        <ele>47.1</ele>
        <time>2025-01-28T11:50:02Z</time>
      </trkpt>
      <trkpt lat="48.03165" lon="-4.43575">
        <ele>46.9</ele>
        <time>2025-01-28T11:50:10Z</time>
      </trkpt>
      <trkpt lat="48.03175" lon="-4.43574">
        <ele>46.4</ele>
        <time>2025-01-28T11:50:18Z</time>
      </trkpt>
      <trkpt lat="48.03185" lon="-4.43573">
        <ele>46.1</ele>
        <time>2025-01-28T11:50:26Z</time>
      </trkpt>
      <trkpt lat="48.03194" lon="-4.43572">
        <ele>46.7</ele>
        <time>2025-01-28T11:50:33Z</time>
      </trkpt>
      <trkpt lat="48.03203" lon="-4.43572">
        <ele>45.3</ele>
        <time>2025-01-28T11:50:42Z</time>
      </trkpt>
      <trkpt lat="48.03212" lon="-4.43572">
        <ele>46.1</ele>
        <time>2025-01-28T11:50:56Z</time>
      </trkpt>
      <trkpt lat="48.03222" lon="-4.43573">
        <ele>45.3</ele>
        <time>2025-01-28T11:51:06Z</time>
      </trkpt>
      <trkpt lat="48.03231" lon="-4.43575">
        <ele>46</ele>
        <time>2025-01-28T11:51:12Z</time>
      </trkpt>
      <trkpt lat="48.0324" lon="-4.43577">
        <ele>46.3</ele>
        <time>2025-01-28T11:51:19Z</time>
      </trkpt>
      <trkpt lat="48.0325" lon="-4.43578">
        <ele>46</ele>
        <time>2025-01-28T11:51:26Z</time>
      </trkpt>
      <trkpt lat="48.0326" lon="-4.4358">
        <ele>45.8</ele>
        <time>2025-01-28T11:51:34Z</time>
      </trkpt>
      <trkpt lat="48.0327" lon="-4.43581">
        <ele>45.2</ele>
        <time>2025-01-28T11:51:42Z</time>
      </trkpt>
      <trkpt lat="48.0328" lon="-4.43581">
        <ele>45.5</ele>
        <time>2025-01-28T11:51:50Z</time>
      </trkpt>
      <trkpt lat="48.0329" lon="-4.4358">
        <ele>44.7</ele>
        <time>2025-01-28T11:52:00Z</time>
      </trkpt>
      <trkpt lat="48.03299" lon="-4.43577">
        <ele>45.2</ele>
        <time>2025-01-28T11:52:10Z</time>
      </trkpt>
      <trkpt lat="48.03309" lon="-4.43577">
        <ele>45</ele>
        <time>2025-01-28T11:52:18Z</time>
      </trkpt>
      <trkpt lat="48.03319" lon="-4.43576">
        <ele>44.5</ele>
        <time>2025-01-28T11:52:24Z</time>
      </trkpt>
      <trkpt lat="48.03329" lon="-4.43577">
        <ele>44.3</ele>
        <time>2025-01-28T11:52:30Z</time>
      </trkpt>
      <trkpt lat="48.03339" lon="-4.43575">
        <ele>43.3</ele>
        <time>2025-01-28T11:52:37Z</time>
      </trkpt>
      <trkpt lat="48.03349" lon="-4.43576">
        <ele>43.3</ele>
        <time>2025-01-28T11:52:47Z</time>
      </trkpt>
      <trkpt lat="48.03358" lon="-4.43578">
        <ele>42.3</ele>
        <time>2025-01-28T11:52:57Z</time>
      </trkpt>
      <trkpt lat="48.03368" lon="-4.43584">
        <ele>40.5</ele>
        <time>2025-01-28T11:53:08Z</time>
      </trkpt>
      <trkpt lat="48.03378" lon="-4.43587">
        <ele>39.8</ele>
        <time>2025-01-28T11:53:18Z</time>
      </trkpt>
      <trkpt lat="48.03389" lon="-4.43594">
        <ele>39.9</ele>
        <time>2025-01-28T11:53:26Z</time>
      </trkpt>
      <trkpt lat="48.03398" lon="-4.43598">
        <ele>39.7</ele>
        <time>2025-01-28T11:53:35Z</time>
      </trkpt>
      <trkpt lat="48.03407" lon="-4.43598">
        <ele>39.3</ele>
        <time>2025-01-28T11:53:42Z</time>
      </trkpt>
      <trkpt lat="48.03417" lon="-4.43599">
        <ele>38.5</ele>
        <time>2025-01-28T11:53:49Z</time>
      </trkpt>
      <trkpt lat="48.03426" lon="-4.43605">
        <ele>38.4</ele>
        <time>2025-01-28T11:53:59Z</time>
      </trkpt>
      <trkpt lat="48.03436" lon="-4.43608">
        <ele>37.6</ele>
        <time>2025-01-28T11:54:07Z</time>
      </trkpt>
      <trkpt lat="48.03445" lon="-4.4361">
        <ele>37.2</ele>
        <time>2025-01-28T11:54:14Z</time>
      </trkpt>
      <trkpt lat="48.03456" lon="-4.43612">
        <ele>36.8</ele>
        <time>2025-01-28T11:54:24Z</time>
      </trkpt>
      <trkpt lat="48.03466" lon="-4.4361">
        <ele>35.2</ele>
        <time>2025-01-28T11:54:36Z</time>
      </trkpt>
      <trkpt lat="48.03473" lon="-4.43617">
        <ele>35.4</ele>
        <time>2025-01-28T11:54:47Z</time>
      </trkpt>
      <trkpt lat="48.0348" lon="-4.43627">
        <ele>34.6</ele>
        <time>2025-01-28T11:55:06Z</time>
      </trkpt>
      <trkpt lat="48.03483" lon="-4.43627">
        <ele>33.8</ele>
        <time>2025-01-28T11:55:31Z</time>
      </trkpt>
    </trkseg>
  </trk>
</gpx>